<?xml version="1.0" encoding="UTF-8" standalone="no" ?>
<gpx xmlns="http://www.topografix.com/GPX/1/1" xmlns:xsi="http://www.w3.org/2001/XMLSchema-instance" xsi:schemaLocation="http://www.topografix.com/GPX/1/1 http://www.topografix.com/GPX/1/1/gpx.xsd" version="1.1" creator="VisuGPX - https://www.visugpx.com">
  <metadata>
    <name>1traversée de l'ardeche en vtt (GTA)</name>
    <desc><![CDATA[gta 1 er partie]]></desc>
  </metadata>
  <trk>
    <name><![CDATA[1traversée de l'ardeche en vtt (GTA)]]></name>
    <trkseg>
      <trkpt lat="45.27056" lon="4.64895">
        <ele>414</ele>
        <time>2020-06-08T06:03:08Z</time>
      </trkpt>
      <trkpt lat="45.27037" lon="4.64786">
        <ele>410</ele>
      </trkpt>
      <trkpt lat="45.26975" lon="4.64632">
        <ele>415.7</ele>
      </trkpt>
      <trkpt lat="45.26993" lon="4.64574">
        <ele>416</ele>
        <time>2020-06-08T06:04:06Z</time>
      </trkpt>
      <trkpt lat="45.2695" lon="4.645">
        <ele>422</ele>
        <time>2020-06-08T06:04:21Z</time>
      </trkpt>
      <trkpt lat="45.26939" lon="4.64478">
        <ele>423</ele>
        <time>2020-06-08T06:04:26Z</time>
      </trkpt>
      <trkpt lat="45.26919" lon="4.64471">
        <ele>422</ele>
        <time>2020-06-08T06:04:31Z</time>
      </trkpt>
      <trkpt lat="45.26919" lon="4.64608">
        <ele>418</ele>
        <time>2020-06-08T06:04:53Z</time>
      </trkpt>
      <trkpt lat="45.26784" lon="4.64853">
        <ele>451</ele>
        <time>2020-06-08T06:05:45Z</time>
      </trkpt>
      <trkpt lat="45.26764" lon="4.649">
        <ele>453</ele>
        <time>2020-06-08T06:05:54Z</time>
      </trkpt>
      <trkpt lat="45.26757" lon="4.64933">
        <ele>453</ele>
        <time>2020-06-08T06:05:59Z</time>
      </trkpt>
      <trkpt lat="45.26753" lon="4.65009">
        <ele>443.2</ele>
      </trkpt>
      <trkpt lat="45.26766" lon="4.65046">
        <ele>440</ele>
        <time>2020-06-08T06:06:18Z</time>
      </trkpt>
      <trkpt lat="45.26762" lon="4.65069">
        <ele>441</ele>
        <time>2020-06-08T06:06:22Z</time>
      </trkpt>
      <trkpt lat="45.2668" lon="4.6514">
        <ele>445</ele>
        <time>2020-06-08T06:06:45Z</time>
      </trkpt>
      <trkpt lat="45.26605" lon="4.6518">
        <ele>446</ele>
        <time>2020-06-08T06:07:03Z</time>
      </trkpt>
      <trkpt lat="45.2654" lon="4.6519">
        <ele>449</ele>
        <time>2020-06-08T06:07:19Z</time>
      </trkpt>
      <trkpt lat="45.26429" lon="4.65202">
        <ele>452</ele>
        <time>2020-06-08T06:07:45Z</time>
      </trkpt>
      <trkpt lat="45.26391" lon="4.65197">
        <ele>454</ele>
        <time>2020-06-08T06:07:54Z</time>
      </trkpt>
      <trkpt lat="45.26383" lon="4.65206">
        <ele>453</ele>
        <time>2020-06-08T06:07:56Z</time>
      </trkpt>
      <trkpt lat="45.26389" lon="4.65224">
        <ele>451</ele>
        <time>2020-06-08T06:07:59Z</time>
      </trkpt>
      <trkpt lat="45.26491" lon="4.65438">
        <ele>448</ele>
        <time>2020-06-08T06:08:42Z</time>
      </trkpt>
      <trkpt lat="45.26499" lon="4.65466">
        <ele>449</ele>
        <time>2020-06-08T06:08:47Z</time>
      </trkpt>
      <trkpt lat="45.26498" lon="4.65488">
        <ele>450</ele>
        <time>2020-06-08T06:08:50Z</time>
      </trkpt>
      <trkpt lat="45.26478" lon="4.65515">
        <ele>455</ele>
        <time>2020-06-08T06:08:57Z</time>
      </trkpt>
      <trkpt lat="45.26439" lon="4.65583">
        <ele>462.6</ele>
      </trkpt>
      <trkpt lat="45.26375" lon="4.65637">
        <ele>471</ele>
        <time>2020-06-08T06:09:29Z</time>
      </trkpt>
      <trkpt lat="45.26307" lon="4.65666">
        <ele>477.1</ele>
      </trkpt>
      <trkpt lat="45.2628" lon="4.65842">
        <ele>474</ele>
        <time>2020-06-08T06:10:14Z</time>
      </trkpt>
      <trkpt lat="45.26259" lon="4.65887">
        <ele>472.1</ele>
      </trkpt>
      <trkpt lat="45.26141" lon="4.6597">
        <ele>466</ele>
        <time>2020-06-08T06:10:55Z</time>
      </trkpt>
      <trkpt lat="45.26092" lon="4.65991">
        <ele>464.6</ele>
      </trkpt>
      <trkpt lat="45.26063" lon="4.6602">
        <ele>463</ele>
        <time>2020-06-08T06:11:16Z</time>
      </trkpt>
      <trkpt lat="45.25999" lon="4.66112">
        <ele>463.8</ele>
      </trkpt>
      <trkpt lat="45.25956" lon="4.66066">
        <ele>468</ele>
      </trkpt>
      <trkpt lat="45.259" lon="4.65907">
        <ele>478</ele>
        <time>2020-06-08T06:12:16Z</time>
      </trkpt>
      <trkpt lat="45.25764" lon="4.65927">
        <ele>479</ele>
      </trkpt>
      <trkpt lat="45.25717" lon="4.65925">
        <ele>477</ele>
      </trkpt>
      <trkpt lat="45.25698" lon="4.65882">
        <ele>478.2</ele>
      </trkpt>
      <trkpt lat="45.25452" lon="4.65579">
        <ele>499.3</ele>
      </trkpt>
      <trkpt lat="45.25344" lon="4.65455">
        <ele>503</ele>
        <time>2020-06-08T06:14:55Z</time>
      </trkpt>
      <trkpt lat="45.25278" lon="4.65382">
        <ele>504</ele>
        <time>2020-06-08T06:15:15Z</time>
      </trkpt>
      <trkpt lat="45.25215" lon="4.65265">
        <ele>508.8</ele>
      </trkpt>
      <trkpt lat="45.2516" lon="4.65164">
        <ele>515.1</ele>
      </trkpt>
      <trkpt lat="45.25104" lon="4.65034">
        <ele>521</ele>
        <time>2020-06-08T06:16:25Z</time>
      </trkpt>
      <trkpt lat="45.25043" lon="4.64955">
        <ele>517.5</ele>
      </trkpt>
      <trkpt lat="45.24986" lon="4.64859">
        <ele>515</ele>
        <time>2020-06-08T06:17:05Z</time>
      </trkpt>
      <trkpt lat="45.24938" lon="4.64722">
        <ele>520.1</ele>
      </trkpt>
      <trkpt lat="45.24894" lon="4.64645">
        <ele>516</ele>
        <time>2020-06-08T06:17:47Z</time>
      </trkpt>
      <trkpt lat="45.24851" lon="4.64578">
        <ele>520</ele>
        <time>2020-06-08T06:18:02Z</time>
      </trkpt>
      <trkpt lat="45.2476" lon="4.64546">
        <ele>518</ele>
        <time>2020-06-08T06:18:23Z</time>
      </trkpt>
      <trkpt lat="45.2473" lon="4.64524">
        <ele>519</ele>
        <time>2020-06-08T06:18:31Z</time>
      </trkpt>
      <trkpt lat="45.24682" lon="4.64439">
        <ele>528</ele>
        <time>2020-06-08T06:18:49Z</time>
      </trkpt>
      <trkpt lat="45.24558" lon="4.64273">
        <ele>530.6</ele>
      </trkpt>
      <trkpt lat="45.24522" lon="4.64142">
        <ele>533</ele>
        <time>2020-06-08T06:19:52Z</time>
      </trkpt>
      <trkpt lat="45.24455" lon="4.64054">
        <ele>525.4</ele>
      </trkpt>
      <trkpt lat="45.24438" lon="4.63991">
        <ele>520.4</ele>
      </trkpt>
      <trkpt lat="45.24537" lon="4.63994">
        <ele>523.6</ele>
      </trkpt>
      <trkpt lat="45.24555" lon="4.63974">
        <ele>524</ele>
        <time>2020-06-08T06:20:49Z</time>
      </trkpt>
      <trkpt lat="45.24598" lon="4.63932">
        <ele>522</ele>
        <time>2020-06-08T06:21:01Z</time>
      </trkpt>
      <trkpt lat="45.24648" lon="4.63869">
        <ele>519</ele>
        <time>2020-06-08T06:21:17Z</time>
      </trkpt>
      <trkpt lat="45.24671" lon="4.6385">
        <ele>517</ele>
        <time>2020-06-08T06:21:23Z</time>
      </trkpt>
      <trkpt lat="45.24679" lon="4.63846">
        <ele>516</ele>
        <time>2020-06-08T06:21:25Z</time>
      </trkpt>
      <trkpt lat="45.24704" lon="4.63848">
        <ele>514</ele>
        <time>2020-06-08T06:21:31Z</time>
      </trkpt>
      <trkpt lat="45.2474" lon="4.63847">
        <ele>511</ele>
        <time>2020-06-08T06:21:40Z</time>
      </trkpt>
      <trkpt lat="45.24775" lon="4.63837">
        <ele>510</ele>
        <time>2020-06-08T06:21:48Z</time>
      </trkpt>
      <trkpt lat="45.24797" lon="4.63855">
        <ele>512</ele>
        <time>2020-06-08T06:21:54Z</time>
      </trkpt>
      <trkpt lat="45.24825" lon="4.63862">
        <ele>513</ele>
        <time>2020-06-08T06:22:00Z</time>
      </trkpt>
      <trkpt lat="45.24843" lon="4.63811">
        <ele>511</ele>
        <time>2020-06-08T06:22:10Z</time>
      </trkpt>
      <trkpt lat="45.24837" lon="4.63758">
        <ele>509</ele>
        <time>2020-06-08T06:22:19Z</time>
      </trkpt>
      <trkpt lat="45.24823" lon="4.6371">
        <ele>507</ele>
        <time>2020-06-08T06:22:27Z</time>
      </trkpt>
      <trkpt lat="45.24824" lon="4.63645">
        <ele>507</ele>
        <time>2020-06-08T06:22:38Z</time>
      </trkpt>
      <trkpt lat="45.24818" lon="4.63621">
        <ele>507</ele>
        <time>2020-06-08T06:22:42Z</time>
      </trkpt>
      <trkpt lat="45.24765" lon="4.63556">
        <ele>504</ele>
        <time>2020-06-08T06:22:58Z</time>
      </trkpt>
      <trkpt lat="45.24738" lon="4.63516">
        <ele>505</ele>
        <time>2020-06-08T06:23:07Z</time>
      </trkpt>
      <trkpt lat="45.24726" lon="4.63487">
        <ele>506</ele>
        <time>2020-06-08T06:23:13Z</time>
      </trkpt>
      <trkpt lat="45.24652" lon="4.63363">
        <ele>508</ele>
        <time>2020-06-08T06:23:40Z</time>
      </trkpt>
      <trkpt lat="45.24633" lon="4.63339">
        <ele>508</ele>
        <time>2020-06-08T06:23:46Z</time>
      </trkpt>
      <trkpt lat="45.24616" lon="4.63328">
        <ele>508</ele>
        <time>2020-06-08T06:23:50Z</time>
      </trkpt>
      <trkpt lat="45.24498" lon="4.63285">
        <ele>499</ele>
        <time>2020-06-08T06:24:19Z</time>
      </trkpt>
      <trkpt lat="45.24467" lon="4.63289">
        <ele>495</ele>
        <time>2020-06-08T06:24:26Z</time>
      </trkpt>
      <trkpt lat="45.24425" lon="4.63269">
        <ele>493</ele>
        <time>2020-06-08T06:24:36Z</time>
      </trkpt>
      <trkpt lat="45.24367" lon="4.63257">
        <ele>488</ele>
        <time>2020-06-08T06:24:50Z</time>
      </trkpt>
      <trkpt lat="45.24362" lon="4.63249">
        <ele>489</ele>
        <time>2020-06-08T06:24:52Z</time>
      </trkpt>
      <trkpt lat="45.24343" lon="4.63246">
        <ele>487</ele>
        <time>2020-06-08T06:24:56Z</time>
      </trkpt>
      <trkpt lat="45.24325" lon="4.63246">
        <ele>486</ele>
        <time>2020-06-08T06:25:00Z</time>
      </trkpt>
      <trkpt lat="45.24277" lon="4.63255">
        <ele>480</ele>
        <time>2020-06-08T06:25:12Z</time>
      </trkpt>
      <trkpt lat="45.24198" lon="4.63256">
        <ele>473</ele>
        <time>2020-06-08T06:25:30Z</time>
      </trkpt>
      <trkpt lat="45.24172" lon="4.6325">
        <ele>471</ele>
        <time>2020-06-08T06:25:36Z</time>
      </trkpt>
      <trkpt lat="45.24138" lon="4.63235">
        <ele>469</ele>
        <time>2020-06-08T06:25:44Z</time>
      </trkpt>
      <trkpt lat="45.24123" lon="4.63231">
        <ele>466</ele>
        <time>2020-06-08T06:25:48Z</time>
      </trkpt>
      <trkpt lat="45.24091" lon="4.63254">
        <ele>460</ele>
        <time>2020-06-08T06:25:56Z</time>
      </trkpt>
      <trkpt lat="45.24075" lon="4.63221">
        <ele>458</ele>
        <time>2020-06-08T06:26:03Z</time>
      </trkpt>
      <trkpt lat="45.24065" lon="4.63142">
        <ele>461</ele>
        <time>2020-06-08T06:26:16Z</time>
      </trkpt>
      <trkpt lat="45.24054" lon="4.63081">
        <ele>461</ele>
        <time>2020-06-08T06:26:27Z</time>
      </trkpt>
      <trkpt lat="45.24035" lon="4.63036">
        <ele>461</ele>
        <time>2020-06-08T06:26:35Z</time>
      </trkpt>
      <trkpt lat="45.24004" lon="4.62982">
        <ele>457</ele>
        <time>2020-06-08T06:26:47Z</time>
      </trkpt>
      <trkpt lat="45.23987" lon="4.62958">
        <ele>455</ele>
        <time>2020-06-08T06:26:52Z</time>
      </trkpt>
      <trkpt lat="45.23966" lon="4.62911">
        <ele>455</ele>
        <time>2020-06-08T06:27:01Z</time>
      </trkpt>
      <trkpt lat="45.23947" lon="4.62851">
        <ele>453</ele>
        <time>2020-06-08T06:27:12Z</time>
      </trkpt>
      <trkpt lat="45.23923" lon="4.62805">
        <ele>448</ele>
        <time>2020-06-08T06:27:22Z</time>
      </trkpt>
      <trkpt lat="45.23916" lon="4.62783">
        <ele>446</ele>
        <time>2020-06-08T06:27:26Z</time>
      </trkpt>
      <trkpt lat="45.23917" lon="4.62756">
        <ele>446</ele>
        <time>2020-06-08T06:27:30Z</time>
      </trkpt>
      <trkpt lat="45.23924" lon="4.62721">
        <ele>442</ele>
        <time>2020-06-08T06:27:36Z</time>
      </trkpt>
      <trkpt lat="45.23941" lon="4.62673">
        <ele>436</ele>
        <time>2020-06-08T06:27:45Z</time>
      </trkpt>
      <trkpt lat="45.23954" lon="4.62656">
        <ele>434</ele>
        <time>2020-06-08T06:27:49Z</time>
      </trkpt>
      <trkpt lat="45.23981" lon="4.62637">
        <ele>434</ele>
        <time>2020-06-08T06:27:56Z</time>
      </trkpt>
      <trkpt lat="45.24035" lon="4.62618">
        <ele>427</ele>
        <time>2020-06-08T06:28:09Z</time>
      </trkpt>
      <trkpt lat="45.24146" lon="4.62673">
        <ele>434</ele>
        <time>2020-06-08T06:28:36Z</time>
      </trkpt>
      <trkpt lat="45.24151" lon="4.62674">
        <ele>434</ele>
        <time>2020-06-08T06:28:38Z</time>
      </trkpt>
      <trkpt lat="45.24155" lon="4.62671">
        <ele>433</ele>
        <time>2020-06-08T06:28:39Z</time>
      </trkpt>
      <trkpt lat="45.24159" lon="4.6266">
        <ele>432</ele>
        <time>2020-06-08T06:28:41Z</time>
      </trkpt>
      <trkpt lat="45.24162" lon="4.62631">
        <ele>428</ele>
        <time>2020-06-08T06:28:46Z</time>
      </trkpt>
      <trkpt lat="45.24158" lon="4.62561">
        <ele>419</ele>
        <time>2020-06-08T06:28:57Z</time>
      </trkpt>
      <trkpt lat="45.24171" lon="4.6252">
        <ele>417</ele>
        <time>2020-06-08T06:29:04Z</time>
      </trkpt>
      <trkpt lat="45.24193" lon="4.62495">
        <ele>421</ele>
        <time>2020-06-08T06:29:11Z</time>
      </trkpt>
      <trkpt lat="45.2422" lon="4.62473">
        <ele>427</ele>
        <time>2020-06-08T06:29:18Z</time>
      </trkpt>
      <trkpt lat="45.24227" lon="4.6246">
        <ele>427</ele>
        <time>2020-06-08T06:29:21Z</time>
      </trkpt>
      <trkpt lat="45.24227" lon="4.62445">
        <ele>427</ele>
        <time>2020-06-08T06:29:23Z</time>
      </trkpt>
      <trkpt lat="45.2422" lon="4.62434">
        <ele>426</ele>
        <time>2020-06-08T06:29:26Z</time>
      </trkpt>
      <trkpt lat="45.24208" lon="4.62432">
        <ele>426</ele>
        <time>2020-06-08T06:29:29Z</time>
      </trkpt>
      <trkpt lat="45.24177" lon="4.6244">
        <ele>426</ele>
        <time>2020-06-08T06:29:36Z</time>
      </trkpt>
      <trkpt lat="45.24134" lon="4.6246">
        <ele>418</ele>
        <time>2020-06-08T06:29:47Z</time>
      </trkpt>
      <trkpt lat="45.24115" lon="4.62459">
        <ele>416</ele>
        <time>2020-06-08T06:29:51Z</time>
      </trkpt>
      <trkpt lat="45.24086" lon="4.62412">
        <ele>425</ele>
        <time>2020-06-08T06:30:01Z</time>
      </trkpt>
      <trkpt lat="45.2406" lon="4.62397">
        <ele>426</ele>
        <time>2020-06-08T06:30:08Z</time>
      </trkpt>
      <trkpt lat="45.24041" lon="4.62381">
        <ele>428</ele>
        <time>2020-06-08T06:30:13Z</time>
      </trkpt>
      <trkpt lat="45.24027" lon="4.62378">
        <ele>426</ele>
        <time>2020-06-08T06:30:16Z</time>
      </trkpt>
      <trkpt lat="45.23965" lon="4.62354">
        <ele>423</ele>
        <time>2020-06-08T06:30:31Z</time>
      </trkpt>
      <trkpt lat="45.23932" lon="4.62328">
        <ele>424</ele>
        <time>2020-06-08T06:30:40Z</time>
      </trkpt>
      <trkpt lat="45.23923" lon="4.62316">
        <ele>424</ele>
        <time>2020-06-08T06:30:43Z</time>
      </trkpt>
      <trkpt lat="45.23906" lon="4.62276">
        <ele>425</ele>
        <time>2020-06-08T06:30:51Z</time>
      </trkpt>
      <trkpt lat="45.239" lon="4.62255">
        <ele>426</ele>
        <time>2020-06-08T06:30:55Z</time>
      </trkpt>
      <trkpt lat="45.23838" lon="4.62134">
        <ele>426</ele>
        <time>2020-06-08T06:31:19Z</time>
      </trkpt>
      <trkpt lat="45.23833" lon="4.6212">
        <ele>427</ele>
        <time>2020-06-08T06:31:22Z</time>
      </trkpt>
      <trkpt lat="45.23829" lon="4.621">
        <ele>428</ele>
        <time>2020-06-08T06:31:25Z</time>
      </trkpt>
      <trkpt lat="45.2383" lon="4.6204">
        <ele>433</ele>
        <time>2020-06-08T06:31:35Z</time>
      </trkpt>
      <trkpt lat="45.23821" lon="4.61981">
        <ele>433</ele>
        <time>2020-06-08T06:31:45Z</time>
      </trkpt>
      <trkpt lat="45.23826" lon="4.61918">
        <ele>435</ele>
        <time>2020-06-08T06:31:55Z</time>
      </trkpt>
      <trkpt lat="45.23818" lon="4.61876">
        <ele>436</ele>
        <time>2020-06-08T06:32:03Z</time>
      </trkpt>
      <trkpt lat="45.23803" lon="4.61848">
        <ele>434</ele>
        <time>2020-06-08T06:32:08Z</time>
      </trkpt>
      <trkpt lat="45.23765" lon="4.61802">
        <ele>428</ele>
        <time>2020-06-08T06:32:20Z</time>
      </trkpt>
      <trkpt lat="45.23757" lon="4.61789">
        <ele>427</ele>
        <time>2020-06-08T06:32:23Z</time>
      </trkpt>
      <trkpt lat="45.23724" lon="4.61695">
        <ele>418</ele>
        <time>2020-06-08T06:32:40Z</time>
      </trkpt>
      <trkpt lat="45.23724" lon="4.61679">
        <ele>418</ele>
        <time>2020-06-08T06:32:43Z</time>
      </trkpt>
      <trkpt lat="45.23731" lon="4.6166">
        <ele>419</ele>
        <time>2020-06-08T06:32:46Z</time>
      </trkpt>
      <trkpt lat="45.23743" lon="4.61643">
        <ele>419</ele>
        <time>2020-06-08T06:32:50Z</time>
      </trkpt>
      <trkpt lat="45.23753" lon="4.61636">
        <ele>420</ele>
        <time>2020-06-08T06:32:53Z</time>
      </trkpt>
      <trkpt lat="45.23761" lon="4.61633">
        <ele>419</ele>
        <time>2020-06-08T06:32:55Z</time>
      </trkpt>
      <trkpt lat="45.23825" lon="4.61629">
        <ele>420</ele>
        <time>2020-06-08T06:33:10Z</time>
      </trkpt>
      <trkpt lat="45.23873" lon="4.61611">
        <ele>417</ele>
        <time>2020-06-08T06:33:21Z</time>
      </trkpt>
      <trkpt lat="45.23913" lon="4.61587">
        <ele>413</ele>
        <time>2020-06-08T06:33:31Z</time>
      </trkpt>
      <trkpt lat="45.23928" lon="4.61566">
        <ele>416</ele>
        <time>2020-06-08T06:33:36Z</time>
      </trkpt>
      <trkpt lat="45.23933" lon="4.61555">
        <ele>418</ele>
        <time>2020-06-08T06:33:38Z</time>
      </trkpt>
      <trkpt lat="45.2392" lon="4.61546">
        <ele>417</ele>
        <time>2020-06-08T06:33:42Z</time>
      </trkpt>
      <trkpt lat="45.23832" lon="4.61537">
        <ele>413</ele>
        <time>2020-06-08T06:34:02Z</time>
      </trkpt>
      <trkpt lat="45.23795" lon="4.61521">
        <ele>411</ele>
        <time>2020-06-08T06:34:11Z</time>
      </trkpt>
      <trkpt lat="45.23736" lon="4.61478">
        <ele>409</ele>
        <time>2020-06-08T06:34:27Z</time>
      </trkpt>
      <trkpt lat="45.2372" lon="4.61472">
        <ele>408</ele>
        <time>2020-06-08T06:34:31Z</time>
      </trkpt>
      <trkpt lat="45.23705" lon="4.61457">
        <ele>408</ele>
        <time>2020-06-08T06:34:35Z</time>
      </trkpt>
      <trkpt lat="45.23707" lon="4.61454">
        <ele>408</ele>
        <time>2020-06-08T06:34:36Z</time>
      </trkpt>
      <trkpt lat="45.23714" lon="4.61459">
        <ele>408</ele>
        <time>2020-06-08T06:34:38Z</time>
      </trkpt>
      <trkpt lat="45.23742" lon="4.61468">
        <ele>410</ele>
        <time>2020-06-08T06:34:44Z</time>
      </trkpt>
      <trkpt lat="45.23764" lon="4.6148">
        <ele>411</ele>
        <time>2020-06-08T06:34:50Z</time>
      </trkpt>
      <trkpt lat="45.23771" lon="4.6148">
        <ele>412</ele>
        <time>2020-06-08T06:34:51Z</time>
      </trkpt>
      <trkpt lat="45.23834" lon="4.61425">
        <ele>428</ele>
        <time>2020-06-08T06:35:09Z</time>
      </trkpt>
      <trkpt lat="45.23857" lon="4.61412">
        <ele>432</ele>
        <time>2020-06-08T06:35:15Z</time>
      </trkpt>
      <trkpt lat="45.23871" lon="4.61399">
        <ele>435</ele>
        <time>2020-06-08T06:35:18Z</time>
      </trkpt>
      <trkpt lat="45.2391" lon="4.61344">
        <ele>447</ele>
        <time>2020-06-08T06:35:31Z</time>
      </trkpt>
      <trkpt lat="45.23959" lon="4.61299">
        <ele>453</ele>
        <time>2020-06-08T06:35:45Z</time>
      </trkpt>
      <trkpt lat="45.23998" lon="4.61242">
        <ele>462</ele>
        <time>2020-06-08T06:35:58Z</time>
      </trkpt>
      <trkpt lat="45.24015" lon="4.61215">
        <ele>464</ele>
        <time>2020-06-08T06:36:04Z</time>
      </trkpt>
      <trkpt lat="45.24057" lon="4.61114">
        <ele>476</ele>
        <time>2020-06-08T06:36:23Z</time>
      </trkpt>
      <trkpt lat="45.24078" lon="4.61082">
        <ele>481</ele>
        <time>2020-06-08T06:36:30Z</time>
      </trkpt>
      <trkpt lat="45.24112" lon="4.61055">
        <ele>485</ele>
        <time>2020-06-08T06:36:40Z</time>
      </trkpt>
      <trkpt lat="45.24122" lon="4.61052">
        <ele>486</ele>
        <time>2020-06-08T06:36:42Z</time>
      </trkpt>
      <trkpt lat="45.24129" lon="4.61042">
        <ele>488</ele>
        <time>2020-06-08T06:36:44Z</time>
      </trkpt>
      <trkpt lat="45.24129" lon="4.61033">
        <ele>489</ele>
        <time>2020-06-08T06:36:46Z</time>
      </trkpt>
      <trkpt lat="45.2412" lon="4.61007">
        <ele>491</ele>
        <time>2020-06-08T06:36:50Z</time>
      </trkpt>
      <trkpt lat="45.24118" lon="4.60991">
        <ele>492</ele>
        <time>2020-06-08T06:36:53Z</time>
      </trkpt>
      <trkpt lat="45.24118" lon="4.60966">
        <ele>493</ele>
        <time>2020-06-08T06:36:57Z</time>
      </trkpt>
      <trkpt lat="45.24123" lon="4.60932">
        <ele>496</ele>
        <time>2020-06-08T06:37:03Z</time>
      </trkpt>
      <trkpt lat="45.2412" lon="4.6091">
        <ele>497</ele>
        <time>2020-06-08T06:37:07Z</time>
      </trkpt>
      <trkpt lat="45.24111" lon="4.60875">
        <ele>495</ele>
        <time>2020-06-08T06:37:13Z</time>
      </trkpt>
      <trkpt lat="45.24076" lon="4.6079">
        <ele>491</ele>
        <time>2020-06-08T06:37:29Z</time>
      </trkpt>
      <trkpt lat="45.2406" lon="4.60767">
        <ele>490</ele>
        <time>2020-06-08T06:37:34Z</time>
      </trkpt>
      <trkpt lat="45.2405" lon="4.60742">
        <ele>490</ele>
        <time>2020-06-08T06:37:39Z</time>
      </trkpt>
      <trkpt lat="45.24054" lon="4.60734">
        <ele>489</ele>
        <time>2020-06-08T06:37:41Z</time>
      </trkpt>
      <trkpt lat="45.24061" lon="4.60728">
        <ele>489</ele>
        <time>2020-06-08T06:37:43Z</time>
      </trkpt>
      <trkpt lat="45.24078" lon="4.60721">
        <ele>490</ele>
        <time>2020-06-08T06:37:47Z</time>
      </trkpt>
      <trkpt lat="45.24104" lon="4.60696">
        <ele>490</ele>
        <time>2020-06-08T06:37:54Z</time>
      </trkpt>
      <trkpt lat="45.24136" lon="4.60654">
        <ele>493</ele>
        <time>2020-06-08T06:38:04Z</time>
      </trkpt>
      <trkpt lat="45.24143" lon="4.60552">
        <ele>493</ele>
        <time>2020-06-08T06:38:21Z</time>
      </trkpt>
      <trkpt lat="45.24132" lon="4.60477">
        <ele>487</ele>
        <time>2020-06-08T06:38:34Z</time>
      </trkpt>
      <trkpt lat="45.24122" lon="4.60447">
        <ele>483</ele>
        <time>2020-06-08T06:38:39Z</time>
      </trkpt>
      <trkpt lat="45.24108" lon="4.60421">
        <ele>479</ele>
        <time>2020-06-08T06:38:44Z</time>
      </trkpt>
      <trkpt lat="45.24085" lon="4.60396">
        <ele>472</ele>
        <time>2020-06-08T06:38:51Z</time>
      </trkpt>
      <trkpt lat="45.24076" lon="4.60389">
        <ele>470</ele>
        <time>2020-06-08T06:38:54Z</time>
      </trkpt>
      <trkpt lat="45.24065" lon="4.60387">
        <ele>467</ele>
        <time>2020-06-08T06:38:56Z</time>
      </trkpt>
      <trkpt lat="45.24052" lon="4.6038">
        <ele>464</ele>
        <time>2020-06-08T06:38:59Z</time>
      </trkpt>
      <trkpt lat="45.24008" lon="4.60335">
        <ele>454</ele>
        <time>2020-06-08T06:39:12Z</time>
      </trkpt>
      <trkpt lat="45.23989" lon="4.6032">
        <ele>451</ele>
        <time>2020-06-08T06:39:17Z</time>
      </trkpt>
      <trkpt lat="45.23965" lon="4.60308">
        <ele>446</ele>
        <time>2020-06-08T06:39:23Z</time>
      </trkpt>
      <trkpt lat="45.23945" lon="4.60304">
        <ele>443</ele>
        <time>2020-06-08T06:39:28Z</time>
      </trkpt>
      <trkpt lat="45.23924" lon="4.60296">
        <ele>439</ele>
        <time>2020-06-08T06:39:33Z</time>
      </trkpt>
      <trkpt lat="45.23901" lon="4.60281">
        <ele>433</ele>
        <time>2020-06-08T06:39:39Z</time>
      </trkpt>
      <trkpt lat="45.23886" lon="4.60268">
        <ele>430</ele>
        <time>2020-06-08T06:39:43Z</time>
      </trkpt>
      <trkpt lat="45.23889" lon="4.60233">
        <ele>431</ele>
        <time>2020-06-08T06:39:49Z</time>
      </trkpt>
      <trkpt lat="45.23865" lon="4.60249">
        <ele>425</ele>
        <time>2020-06-08T06:39:55Z</time>
      </trkpt>
      <trkpt lat="45.23849" lon="4.60285">
        <ele>423</ele>
        <time>2020-06-08T06:40:02Z</time>
      </trkpt>
      <trkpt lat="45.23817" lon="4.60312">
        <ele>421</ele>
        <time>2020-06-08T06:40:11Z</time>
      </trkpt>
      <trkpt lat="45.23836" lon="4.6028">
        <ele>420</ele>
        <time>2020-06-08T06:40:18Z</time>
      </trkpt>
      <trkpt lat="45.23852" lon="4.60202">
        <ele>425</ele>
        <time>2020-06-08T06:40:31Z</time>
      </trkpt>
      <trkpt lat="45.23853" lon="4.60151">
        <ele>428</ele>
        <time>2020-06-08T06:40:39Z</time>
      </trkpt>
      <trkpt lat="45.23859" lon="4.60122">
        <ele>430</ele>
        <time>2020-06-08T06:40:44Z</time>
      </trkpt>
      <trkpt lat="45.23878" lon="4.60088">
        <ele>433</ele>
        <time>2020-06-08T06:40:51Z</time>
      </trkpt>
      <trkpt lat="45.2387" lon="4.60065">
        <ele>433</ele>
        <time>2020-06-08T06:40:56Z</time>
      </trkpt>
      <trkpt lat="45.23859" lon="4.60059">
        <ele>434</ele>
        <time>2020-06-08T06:40:58Z</time>
      </trkpt>
      <trkpt lat="45.23836" lon="4.60079">
        <ele>431</ele>
        <time>2020-06-08T06:41:05Z</time>
      </trkpt>
      <trkpt lat="45.23795" lon="4.60175">
        <ele>429</ele>
        <time>2020-06-08T06:41:23Z</time>
      </trkpt>
      <trkpt lat="45.23778" lon="4.6023">
        <ele>426</ele>
        <time>2020-06-08T06:41:33Z</time>
      </trkpt>
      <trkpt lat="45.23775" lon="4.60248">
        <ele>425</ele>
        <time>2020-06-08T06:41:36Z</time>
      </trkpt>
      <trkpt lat="45.23764" lon="4.60273">
        <ele>423</ele>
        <time>2020-06-08T06:41:41Z</time>
      </trkpt>
      <trkpt lat="45.23751" lon="4.6028">
        <ele>423</ele>
        <time>2020-06-08T06:41:44Z</time>
      </trkpt>
      <trkpt lat="45.23704" lon="4.6029">
        <ele>425</ele>
        <time>2020-06-08T06:41:55Z</time>
      </trkpt>
      <trkpt lat="45.23725" lon="4.60263">
        <ele>427</ele>
        <time>2020-06-08T06:42:02Z</time>
      </trkpt>
      <trkpt lat="45.23736" lon="4.60244">
        <ele>429</ele>
        <time>2020-06-08T06:42:06Z</time>
      </trkpt>
      <trkpt lat="45.2374" lon="4.60228">
        <ele>431</ele>
        <time>2020-06-08T06:42:09Z</time>
      </trkpt>
      <trkpt lat="45.2374" lon="4.60202">
        <ele>434</ele>
        <time>2020-06-08T06:42:13Z</time>
      </trkpt>
      <trkpt lat="45.23736" lon="4.60174">
        <ele>437</ele>
        <time>2020-06-08T06:42:18Z</time>
      </trkpt>
      <trkpt lat="45.23723" lon="4.6013">
        <ele>441</ele>
        <time>2020-06-08T06:42:25Z</time>
      </trkpt>
      <trkpt lat="45.23727" lon="4.60101">
        <ele>444</ele>
        <time>2020-06-08T06:42:30Z</time>
      </trkpt>
      <trkpt lat="45.23737" lon="4.60068">
        <ele>447</ele>
        <time>2020-06-08T06:42:36Z</time>
      </trkpt>
      <trkpt lat="45.23754" lon="4.60038">
        <ele>451</ele>
        <time>2020-06-08T06:42:43Z</time>
      </trkpt>
      <trkpt lat="45.23771" lon="4.59991">
        <ele>455</ele>
        <time>2020-06-08T06:42:51Z</time>
      </trkpt>
      <trkpt lat="45.23789" lon="4.59916">
        <ele>465</ele>
        <time>2020-06-08T06:43:04Z</time>
      </trkpt>
      <trkpt lat="45.23795" lon="4.59859">
        <ele>471</ele>
        <time>2020-06-08T06:43:14Z</time>
      </trkpt>
      <trkpt lat="45.23802" lon="4.59839">
        <ele>474</ele>
        <time>2020-06-08T06:43:17Z</time>
      </trkpt>
      <trkpt lat="45.23805" lon="4.59812">
        <ele>478</ele>
        <time>2020-06-08T06:43:22Z</time>
      </trkpt>
      <trkpt lat="45.23812" lon="4.59789">
        <ele>482</ele>
        <time>2020-06-08T06:43:26Z</time>
      </trkpt>
      <trkpt lat="45.23836" lon="4.59738">
        <ele>493</ele>
        <time>2020-06-08T06:43:36Z</time>
      </trkpt>
      <trkpt lat="45.23844" lon="4.59712">
        <ele>497</ele>
        <time>2020-06-08T06:43:41Z</time>
      </trkpt>
      <trkpt lat="45.23845" lon="4.59674">
        <ele>502</ele>
        <time>2020-06-08T06:43:47Z</time>
      </trkpt>
      <trkpt lat="45.23835" lon="4.5966">
        <ele>502</ele>
        <time>2020-06-08T06:43:50Z</time>
      </trkpt>
      <trkpt lat="45.23823" lon="4.59652">
        <ele>501</ele>
        <time>2020-06-08T06:43:53Z</time>
      </trkpt>
      <trkpt lat="45.23767" lon="4.59624">
        <ele>498</ele>
        <time>2020-06-08T06:44:07Z</time>
      </trkpt>
      <trkpt lat="45.23751" lon="4.59528">
        <ele>513</ele>
        <time>2020-06-08T06:44:24Z</time>
      </trkpt>
      <trkpt lat="45.23739" lon="4.59512">
        <ele>515</ele>
        <time>2020-06-08T06:44:27Z</time>
      </trkpt>
      <trkpt lat="45.23732" lon="4.59513">
        <ele>515</ele>
        <time>2020-06-08T06:44:29Z</time>
      </trkpt>
      <trkpt lat="45.23716" lon="4.59523">
        <ele>513</ele>
        <time>2020-06-08T06:44:33Z</time>
      </trkpt>
      <trkpt lat="45.23699" lon="4.59525">
        <ele>513</ele>
        <time>2020-06-08T06:44:37Z</time>
      </trkpt>
      <trkpt lat="45.23655" lon="4.59502">
        <ele>515</ele>
        <time>2020-06-08T06:44:48Z</time>
      </trkpt>
      <trkpt lat="45.23621" lon="4.59462">
        <ele>519</ele>
        <time>2020-06-08T06:44:58Z</time>
      </trkpt>
      <trkpt lat="45.23584" lon="4.59429">
        <ele>524</ele>
        <time>2020-06-08T06:45:09Z</time>
      </trkpt>
      <trkpt lat="45.23552" lon="4.59373">
        <ele>529</ele>
        <time>2020-06-08T06:45:20Z</time>
      </trkpt>
      <trkpt lat="45.23539" lon="4.59362">
        <ele>529</ele>
        <time>2020-06-08T06:45:24Z</time>
      </trkpt>
      <trkpt lat="45.23527" lon="4.59357">
        <ele>528</ele>
        <time>2020-06-08T06:45:27Z</time>
      </trkpt>
      <trkpt lat="45.23495" lon="4.59351">
        <ele>525</ele>
        <time>2020-06-08T06:45:34Z</time>
      </trkpt>
      <trkpt lat="45.23474" lon="4.59344">
        <ele>523</ele>
        <time>2020-06-08T06:45:39Z</time>
      </trkpt>
      <trkpt lat="45.2346" lon="4.59331">
        <ele>523</ele>
        <time>2020-06-08T06:45:43Z</time>
      </trkpt>
      <trkpt lat="45.23446" lon="4.59312">
        <ele>524</ele>
        <time>2020-06-08T06:45:48Z</time>
      </trkpt>
      <trkpt lat="45.23429" lon="4.59264">
        <ele>529</ele>
        <time>2020-06-08T06:45:57Z</time>
      </trkpt>
      <trkpt lat="45.23409" lon="4.59219">
        <ele>529</ele>
        <time>2020-06-08T06:46:05Z</time>
      </trkpt>
      <trkpt lat="45.23404" lon="4.5914">
        <ele>533</ele>
        <time>2020-06-08T06:46:19Z</time>
      </trkpt>
      <trkpt lat="45.23408" lon="4.59058">
        <ele>543</ele>
        <time>2020-06-08T06:46:32Z</time>
      </trkpt>
      <trkpt lat="45.23406" lon="4.59051">
        <ele>544</ele>
        <time>2020-06-08T06:46:33Z</time>
      </trkpt>
      <trkpt lat="45.23401" lon="4.59045">
        <ele>544</ele>
        <time>2020-06-08T06:46:35Z</time>
      </trkpt>
      <trkpt lat="45.23395" lon="4.59043">
        <ele>543</ele>
        <time>2020-06-08T06:46:36Z</time>
      </trkpt>
      <trkpt lat="45.23377" lon="4.59044">
        <ele>538</ele>
        <time>2020-06-08T06:46:40Z</time>
      </trkpt>
      <trkpt lat="45.23364" lon="4.5904">
        <ele>536</ele>
        <time>2020-06-08T06:46:44Z</time>
      </trkpt>
      <trkpt lat="45.23357" lon="4.59033">
        <ele>537</ele>
        <time>2020-06-08T06:46:46Z</time>
      </trkpt>
      <trkpt lat="45.23351" lon="4.59018">
        <ele>540</ele>
        <time>2020-06-08T06:46:48Z</time>
      </trkpt>
      <trkpt lat="45.2334" lon="4.59007">
        <ele>542</ele>
        <time>2020-06-08T06:46:52Z</time>
      </trkpt>
      <trkpt lat="45.23312" lon="4.58994">
        <ele>542</ele>
        <time>2020-06-08T06:46:58Z</time>
      </trkpt>
      <trkpt lat="45.23255" lon="4.58955">
        <ele>543</ele>
        <time>2020-06-08T06:47:13Z</time>
      </trkpt>
      <trkpt lat="45.23253" lon="4.58938">
        <ele>545</ele>
        <time>2020-06-08T06:47:16Z</time>
      </trkpt>
      <trkpt lat="45.23255" lon="4.58924">
        <ele>548</ele>
        <time>2020-06-08T06:47:18Z</time>
      </trkpt>
      <trkpt lat="45.23254" lon="4.58907">
        <ele>549</ele>
        <time>2020-06-08T06:47:21Z</time>
      </trkpt>
      <trkpt lat="45.23242" lon="4.5887">
        <ele>549</ele>
        <time>2020-06-08T06:47:28Z</time>
      </trkpt>
      <trkpt lat="45.23229" lon="4.58806">
        <ele>551</ele>
        <time>2020-06-08T06:47:39Z</time>
      </trkpt>
      <trkpt lat="45.23223" lon="4.58785">
        <ele>551</ele>
        <time>2020-06-08T06:47:43Z</time>
      </trkpt>
      <trkpt lat="45.23182" lon="4.58705">
        <ele>549</ele>
        <time>2020-06-08T06:47:59Z</time>
      </trkpt>
      <trkpt lat="45.23167" lon="4.58684">
        <ele>546</ele>
        <time>2020-06-08T06:48:04Z</time>
      </trkpt>
      <trkpt lat="45.23157" lon="4.58654">
        <ele>545</ele>
        <time>2020-06-08T06:48:09Z</time>
      </trkpt>
      <trkpt lat="45.23145" lon="4.58603">
        <ele>543</ele>
        <time>2020-06-08T06:48:18Z</time>
      </trkpt>
      <trkpt lat="45.23144" lon="4.58553">
        <ele>542</ele>
        <time>2020-06-08T06:48:26Z</time>
      </trkpt>
      <trkpt lat="45.23117" lon="4.58581">
        <ele>535</ele>
        <time>2020-06-08T06:48:34Z</time>
      </trkpt>
      <trkpt lat="45.231" lon="4.58626">
        <ele>532</ele>
        <time>2020-06-08T06:48:42Z</time>
      </trkpt>
      <trkpt lat="45.23084" lon="4.58644">
        <ele>529</ele>
        <time>2020-06-08T06:48:47Z</time>
      </trkpt>
      <trkpt lat="45.23078" lon="4.58666">
        <ele>529</ele>
        <time>2020-06-08T06:48:51Z</time>
      </trkpt>
      <trkpt lat="45.23066" lon="4.58682">
        <ele>527</ele>
        <time>2020-06-08T06:48:55Z</time>
      </trkpt>
      <trkpt lat="45.23063" lon="4.58697">
        <ele>526</ele>
        <time>2020-06-08T06:48:58Z</time>
      </trkpt>
      <trkpt lat="45.23043" lon="4.58701">
        <ele>522</ele>
        <time>2020-06-08T06:49:02Z</time>
      </trkpt>
      <trkpt lat="45.23038" lon="4.58711">
        <ele>521</ele>
        <time>2020-06-08T06:49:04Z</time>
      </trkpt>
      <trkpt lat="45.23014" lon="4.58712">
        <ele>516</ele>
        <time>2020-06-08T06:49:10Z</time>
      </trkpt>
      <trkpt lat="45.23001" lon="4.58692">
        <ele>513</ele>
        <time>2020-06-08T06:49:14Z</time>
      </trkpt>
      <trkpt lat="45.22997" lon="4.5867">
        <ele>512</ele>
        <time>2020-06-08T06:49:18Z</time>
      </trkpt>
      <trkpt lat="45.22993" lon="4.58604">
        <ele>509</ele>
        <time>2020-06-08T06:49:29Z</time>
      </trkpt>
      <trkpt lat="45.22986" lon="4.58577">
        <ele>508</ele>
        <time>2020-06-08T06:49:34Z</time>
      </trkpt>
      <trkpt lat="45.22977" lon="4.58568">
        <ele>508</ele>
        <time>2020-06-08T06:49:36Z</time>
      </trkpt>
      <trkpt lat="45.22969" lon="4.58573">
        <ele>506</ele>
        <time>2020-06-08T06:49:38Z</time>
      </trkpt>
      <trkpt lat="45.22962" lon="4.58592">
        <ele>504</ele>
        <time>2020-06-08T06:49:42Z</time>
      </trkpt>
      <trkpt lat="45.22952" lon="4.58643">
        <ele>501</ele>
        <time>2020-06-08T06:49:51Z</time>
      </trkpt>
      <trkpt lat="45.22941" lon="4.58667">
        <ele>497</ele>
        <time>2020-06-08T06:49:55Z</time>
      </trkpt>
      <trkpt lat="45.22919" lon="4.587">
        <ele>492</ele>
        <time>2020-06-08T06:50:03Z</time>
      </trkpt>
      <trkpt lat="45.2289" lon="4.58728">
        <ele>488</ele>
        <time>2020-06-08T06:50:11Z</time>
      </trkpt>
      <trkpt lat="45.22867" lon="4.58738">
        <ele>485</ele>
        <time>2020-06-08T06:50:17Z</time>
      </trkpt>
      <trkpt lat="45.22849" lon="4.58743">
        <ele>482</ele>
        <time>2020-06-08T06:50:21Z</time>
      </trkpt>
      <trkpt lat="45.22829" lon="4.58742">
        <ele>478</ele>
        <time>2020-06-08T06:50:26Z</time>
      </trkpt>
      <trkpt lat="45.22812" lon="4.58723">
        <ele>475</ele>
        <time>2020-06-08T06:50:31Z</time>
      </trkpt>
      <trkpt lat="45.22798" lon="4.58716">
        <ele>473</ele>
        <time>2020-06-08T06:50:34Z</time>
      </trkpt>
      <trkpt lat="45.2277" lon="4.58712">
        <ele>469</ele>
        <time>2020-06-08T06:50:41Z</time>
      </trkpt>
      <trkpt lat="45.2271" lon="4.5868">
        <ele>460</ele>
        <time>2020-06-08T06:50:56Z</time>
      </trkpt>
      <trkpt lat="45.22675" lon="4.58669">
        <ele>455</ele>
        <time>2020-06-08T06:51:04Z</time>
      </trkpt>
      <trkpt lat="45.22691" lon="4.58618">
        <ele>455</ele>
        <time>2020-06-08T06:51:13Z</time>
      </trkpt>
      <trkpt lat="45.22714" lon="4.58517">
        <ele>463</ele>
        <time>2020-06-08T06:51:31Z</time>
      </trkpt>
      <trkpt lat="45.22716" lon="4.58467">
        <ele>468</ele>
        <time>2020-06-08T06:51:39Z</time>
      </trkpt>
      <trkpt lat="45.22707" lon="4.58415">
        <ele>469</ele>
        <time>2020-06-08T06:51:48Z</time>
      </trkpt>
      <trkpt lat="45.22708" lon="4.58365">
        <ele>472</ele>
        <time>2020-06-08T06:51:56Z</time>
      </trkpt>
      <trkpt lat="45.22711" lon="4.58335">
        <ele>474</ele>
        <time>2020-06-08T06:52:01Z</time>
      </trkpt>
      <trkpt lat="45.22723" lon="4.58299">
        <ele>479</ele>
        <time>2020-06-08T06:52:07Z</time>
      </trkpt>
      <trkpt lat="45.22743" lon="4.58269">
        <ele>486</ele>
        <time>2020-06-08T06:52:14Z</time>
      </trkpt>
      <trkpt lat="45.22765" lon="4.58222">
        <ele>492</ele>
        <time>2020-06-08T06:52:23Z</time>
      </trkpt>
      <trkpt lat="45.22799" lon="4.58177">
        <ele>498</ele>
        <time>2020-06-08T06:52:34Z</time>
      </trkpt>
      <trkpt lat="45.22834" lon="4.58107">
        <ele>502</ele>
        <time>2020-06-08T06:52:48Z</time>
      </trkpt>
      <trkpt lat="45.22852" lon="4.58089">
        <ele>504</ele>
        <time>2020-06-08T06:52:54Z</time>
      </trkpt>
      <trkpt lat="45.22906" lon="4.58012">
        <ele>505</ele>
        <time>2020-06-08T06:53:11Z</time>
      </trkpt>
      <trkpt lat="45.22924" lon="4.57972">
        <ele>503</ele>
        <time>2020-06-08T06:53:19Z</time>
      </trkpt>
      <trkpt lat="45.22942" lon="4.57941">
        <ele>501</ele>
        <time>2020-06-08T06:53:26Z</time>
      </trkpt>
      <trkpt lat="45.22962" lon="4.57925">
        <ele>504</ele>
        <time>2020-06-08T06:53:31Z</time>
      </trkpt>
      <trkpt lat="45.22984" lon="4.57885">
        <ele>502</ele>
        <time>2020-06-08T06:53:40Z</time>
      </trkpt>
      <trkpt lat="45.23003" lon="4.57842">
        <ele>497</ele>
        <time>2020-06-08T06:53:48Z</time>
      </trkpt>
      <trkpt lat="45.23044" lon="4.57805">
        <ele>501</ele>
        <time>2020-06-08T06:53:59Z</time>
      </trkpt>
      <trkpt lat="45.23065" lon="4.5779">
        <ele>503</ele>
        <time>2020-06-08T06:54:05Z</time>
      </trkpt>
      <trkpt lat="45.23084" lon="4.57769">
        <ele>502</ele>
        <time>2020-06-08T06:54:10Z</time>
      </trkpt>
      <trkpt lat="45.23122" lon="4.57696">
        <ele>506</ele>
        <time>2020-06-08T06:54:25Z</time>
      </trkpt>
      <trkpt lat="45.23131" lon="4.57691">
        <ele>506</ele>
        <time>2020-06-08T06:54:28Z</time>
      </trkpt>
      <trkpt lat="45.23182" lon="4.57636">
        <ele>511</ele>
        <time>2020-06-08T06:54:43Z</time>
      </trkpt>
      <trkpt lat="45.23195" lon="4.57628">
        <ele>514</ele>
        <time>2020-06-08T06:54:46Z</time>
      </trkpt>
      <trkpt lat="45.23205" lon="4.57617">
        <ele>516</ele>
        <time>2020-06-08T06:54:49Z</time>
      </trkpt>
      <trkpt lat="45.23258" lon="4.57532">
        <ele>521</ele>
        <time>2020-06-08T06:55:07Z</time>
      </trkpt>
      <trkpt lat="45.23268" lon="4.57505">
        <ele>522</ele>
        <time>2020-06-08T06:55:12Z</time>
      </trkpt>
      <trkpt lat="45.23286" lon="4.57496">
        <ele>526</ele>
        <time>2020-06-08T06:55:17Z</time>
      </trkpt>
      <trkpt lat="45.23289" lon="4.57485">
        <ele>527</ele>
        <time>2020-06-08T06:55:19Z</time>
      </trkpt>
      <trkpt lat="45.23282" lon="4.57463">
        <ele>526</ele>
        <time>2020-06-08T06:55:23Z</time>
      </trkpt>
      <trkpt lat="45.23277" lon="4.57417">
        <ele>526</ele>
        <time>2020-06-08T06:55:30Z</time>
      </trkpt>
      <trkpt lat="45.23287" lon="4.57325">
        <ele>532</ele>
        <time>2020-06-08T06:55:46Z</time>
      </trkpt>
      <trkpt lat="45.23305" lon="4.57274">
        <ele>536</ele>
        <time>2020-06-08T06:55:55Z</time>
      </trkpt>
      <trkpt lat="45.23342" lon="4.57198">
        <ele>537</ele>
        <time>2020-06-08T06:56:10Z</time>
      </trkpt>
      <trkpt lat="45.23376" lon="4.57137">
        <ele>545</ele>
        <time>2020-06-08T06:56:23Z</time>
      </trkpt>
      <trkpt lat="45.23386" lon="4.57109">
        <ele>546</ele>
        <time>2020-06-08T06:56:28Z</time>
      </trkpt>
      <trkpt lat="45.23394" lon="4.57078">
        <ele>545</ele>
        <time>2020-06-08T06:56:34Z</time>
      </trkpt>
      <trkpt lat="45.23404" lon="4.5698">
        <ele>544</ele>
        <time>2020-06-08T06:56:50Z</time>
      </trkpt>
      <trkpt lat="45.2341" lon="4.56949">
        <ele>543</ele>
        <time>2020-06-08T06:56:55Z</time>
      </trkpt>
      <trkpt lat="45.23415" lon="4.56939">
        <ele>543</ele>
        <time>2020-06-08T06:56:57Z</time>
      </trkpt>
      <trkpt lat="45.23428" lon="4.56923">
        <ele>546</ele>
        <time>2020-06-08T06:57:01Z</time>
      </trkpt>
      <trkpt lat="45.23454" lon="4.56902">
        <ele>551</ele>
        <time>2020-06-08T06:57:08Z</time>
      </trkpt>
      <trkpt lat="45.23479" lon="4.5689">
        <ele>554</ele>
        <time>2020-06-08T06:57:15Z</time>
      </trkpt>
      <trkpt lat="45.23513" lon="4.56858">
        <ele>557</ele>
        <time>2020-06-08T06:57:24Z</time>
      </trkpt>
      <trkpt lat="45.23529" lon="4.56823">
        <ele>558</ele>
        <time>2020-06-08T06:57:31Z</time>
      </trkpt>
      <trkpt lat="45.23532" lon="4.56792">
        <ele>559</ele>
        <time>2020-06-08T06:57:36Z</time>
      </trkpt>
      <trkpt lat="45.23531" lon="4.56759">
        <ele>559</ele>
        <time>2020-06-08T06:57:41Z</time>
      </trkpt>
      <trkpt lat="45.23523" lon="4.56712">
        <ele>559</ele>
        <time>2020-06-08T06:57:49Z</time>
      </trkpt>
      <trkpt lat="45.23524" lon="4.56686">
        <ele>561</ele>
        <time>2020-06-08T06:57:54Z</time>
      </trkpt>
      <trkpt lat="45.23541" lon="4.56589">
        <ele>567</ele>
        <time>2020-06-08T06:58:10Z</time>
      </trkpt>
      <trkpt lat="45.23551" lon="4.5655">
        <ele>570</ele>
        <time>2020-06-08T06:58:17Z</time>
      </trkpt>
      <trkpt lat="45.23546" lon="4.56536">
        <ele>571</ele>
        <time>2020-06-08T06:58:20Z</time>
      </trkpt>
      <trkpt lat="45.23545" lon="4.56507">
        <ele>573</ele>
        <time>2020-06-08T06:58:24Z</time>
      </trkpt>
      <trkpt lat="45.23536" lon="4.56495">
        <ele>573</ele>
        <time>2020-06-08T06:58:27Z</time>
      </trkpt>
      <trkpt lat="45.23529" lon="4.56494">
        <ele>573</ele>
        <time>2020-06-08T06:58:29Z</time>
      </trkpt>
      <trkpt lat="45.23519" lon="4.56498">
        <ele>573</ele>
        <time>2020-06-08T06:58:31Z</time>
      </trkpt>
      <trkpt lat="45.23478" lon="4.56524">
        <ele>574</ele>
        <time>2020-06-08T06:58:42Z</time>
      </trkpt>
      <trkpt lat="45.23457" lon="4.56531">
        <ele>577</ele>
        <time>2020-06-08T06:58:47Z</time>
      </trkpt>
      <trkpt lat="45.23431" lon="4.56532">
        <ele>581</ele>
        <time>2020-06-08T06:58:53Z</time>
      </trkpt>
      <trkpt lat="45.23424" lon="4.56527">
        <ele>582</ele>
        <time>2020-06-08T06:58:55Z</time>
      </trkpt>
      <trkpt lat="45.23423" lon="4.56518">
        <ele>584</ele>
        <time>2020-06-08T06:58:56Z</time>
      </trkpt>
      <trkpt lat="45.23427" lon="4.56507">
        <ele>584</ele>
        <time>2020-06-08T06:58:58Z</time>
      </trkpt>
      <trkpt lat="45.23429" lon="4.56488">
        <ele>586</ele>
        <time>2020-06-08T06:59:01Z</time>
      </trkpt>
      <trkpt lat="45.23418" lon="4.56426">
        <ele>592</ele>
        <time>2020-06-08T06:59:12Z</time>
      </trkpt>
      <trkpt lat="45.23396" lon="4.56351">
        <ele>596</ele>
        <time>2020-06-08T06:59:25Z</time>
      </trkpt>
      <trkpt lat="45.23359" lon="4.56287">
        <ele>600</ele>
        <time>2020-06-08T06:59:39Z</time>
      </trkpt>
      <trkpt lat="45.23357" lon="4.56275">
        <ele>600</ele>
        <time>2020-06-08T06:59:41Z</time>
      </trkpt>
      <trkpt lat="45.23361" lon="4.56184">
        <ele>603</ele>
        <time>2020-06-08T06:59:56Z</time>
      </trkpt>
      <trkpt lat="45.23228" lon="4.56174">
        <ele>603</ele>
        <time>2020-06-08T07:00:27Z</time>
      </trkpt>
      <trkpt lat="45.23184" lon="4.561">
        <ele>609</ele>
        <time>2020-06-08T07:00:43Z</time>
      </trkpt>
      <trkpt lat="45.23145" lon="4.56044">
        <ele>610</ele>
        <time>2020-06-08T07:00:56Z</time>
      </trkpt>
      <trkpt lat="45.23086" lon="4.55974">
        <ele>606</ele>
        <time>2020-06-08T07:01:14Z</time>
      </trkpt>
      <trkpt lat="45.23071" lon="4.55948">
        <ele>607</ele>
        <time>2020-06-08T07:01:19Z</time>
      </trkpt>
      <trkpt lat="45.23006" lon="4.55875">
        <ele>605</ele>
        <time>2020-06-08T07:01:39Z</time>
      </trkpt>
      <trkpt lat="45.2299" lon="4.5585">
        <ele>606</ele>
        <time>2020-06-08T07:01:44Z</time>
      </trkpt>
      <trkpt lat="45.22972" lon="4.55829">
        <ele>607</ele>
        <time>2020-06-08T07:01:50Z</time>
      </trkpt>
      <trkpt lat="45.22927" lon="4.55812">
        <ele>607</ele>
        <time>2020-06-08T07:02:01Z</time>
      </trkpt>
      <trkpt lat="45.22904" lon="4.5582">
        <ele>605</ele>
        <time>2020-06-08T07:02:06Z</time>
      </trkpt>
      <trkpt lat="45.2289" lon="4.55831">
        <ele>604</ele>
        <time>2020-06-08T07:02:10Z</time>
      </trkpt>
      <trkpt lat="45.22861" lon="4.55847">
        <ele>603</ele>
        <time>2020-06-08T07:02:17Z</time>
      </trkpt>
      <trkpt lat="45.22835" lon="4.55856">
        <ele>603</ele>
        <time>2020-06-08T07:02:23Z</time>
      </trkpt>
      <trkpt lat="45.22792" lon="4.55856">
        <ele>602</ele>
        <time>2020-06-08T07:02:33Z</time>
      </trkpt>
      <trkpt lat="45.22779" lon="4.55848">
        <ele>603</ele>
        <time>2020-06-08T07:02:37Z</time>
      </trkpt>
      <trkpt lat="45.22768" lon="4.55839">
        <ele>603</ele>
        <time>2020-06-08T07:02:40Z</time>
      </trkpt>
      <trkpt lat="45.22765" lon="4.5579">
        <ele>607</ele>
        <time>2020-06-08T07:02:48Z</time>
      </trkpt>
      <trkpt lat="45.22759" lon="4.55759">
        <ele>609</ele>
        <time>2020-06-08T07:02:53Z</time>
      </trkpt>
      <trkpt lat="45.22747" lon="4.55725">
        <ele>609</ele>
        <time>2020-06-08T07:02:59Z</time>
      </trkpt>
      <trkpt lat="45.22736" lon="4.55707">
        <ele>609</ele>
        <time>2020-06-08T07:03:03Z</time>
      </trkpt>
      <trkpt lat="45.22724" lon="4.55693">
        <ele>608</ele>
        <time>2020-06-08T07:03:07Z</time>
      </trkpt>
      <trkpt lat="45.22713" lon="4.55666">
        <ele>609</ele>
        <time>2020-06-08T07:03:12Z</time>
      </trkpt>
      <trkpt lat="45.22703" lon="4.55663">
        <ele>608</ele>
        <time>2020-06-08T07:03:14Z</time>
      </trkpt>
      <trkpt lat="45.22691" lon="4.55666">
        <ele>607</ele>
        <time>2020-06-08T07:03:17Z</time>
      </trkpt>
      <trkpt lat="45.22674" lon="4.55658">
        <ele>607</ele>
        <time>2020-06-08T07:03:21Z</time>
      </trkpt>
      <trkpt lat="45.2266" lon="4.55646">
        <ele>607</ele>
        <time>2020-06-08T07:03:25Z</time>
      </trkpt>
      <trkpt lat="45.22636" lon="4.55605">
        <ele>607</ele>
        <time>2020-06-08T07:03:34Z</time>
      </trkpt>
      <trkpt lat="45.22626" lon="4.55593">
        <ele>607</ele>
        <time>2020-06-08T07:03:37Z</time>
      </trkpt>
      <trkpt lat="45.22617" lon="4.55589">
        <ele>606</ele>
        <time>2020-06-08T07:03:39Z</time>
      </trkpt>
      <trkpt lat="45.22581" lon="4.55609">
        <ele>602</ele>
        <time>2020-06-08T07:03:48Z</time>
      </trkpt>
      <trkpt lat="45.22566" lon="4.55634">
        <ele>599</ele>
        <time>2020-06-08T07:03:54Z</time>
      </trkpt>
      <trkpt lat="45.22557" lon="4.55644">
        <ele>598</ele>
        <time>2020-06-08T07:03:56Z</time>
      </trkpt>
      <trkpt lat="45.22526" lon="4.55653">
        <ele>595</ele>
        <time>2020-06-08T07:04:04Z</time>
      </trkpt>
      <trkpt lat="45.22511" lon="4.55663">
        <ele>593</ele>
        <time>2020-06-08T07:04:08Z</time>
      </trkpt>
      <trkpt lat="45.22498" lon="4.55667">
        <ele>592</ele>
        <time>2020-06-08T07:04:11Z</time>
      </trkpt>
      <trkpt lat="45.22484" lon="4.55663">
        <ele>591</ele>
        <time>2020-06-08T07:04:14Z</time>
      </trkpt>
      <trkpt lat="45.22477" lon="4.55613">
        <ele>594</ele>
        <time>2020-06-08T07:04:22Z</time>
      </trkpt>
      <trkpt lat="45.22475" lon="4.55556">
        <ele>598</ele>
        <time>2020-06-08T07:04:32Z</time>
      </trkpt>
      <trkpt lat="45.22475" lon="4.55479">
        <ele>603</ele>
        <time>2020-06-08T07:04:45Z</time>
      </trkpt>
      <trkpt lat="45.22485" lon="4.55399">
        <ele>610</ele>
        <time>2020-06-08T07:04:58Z</time>
      </trkpt>
      <trkpt lat="45.22483" lon="4.55361">
        <ele>613</ele>
        <time>2020-06-08T07:05:04Z</time>
      </trkpt>
      <trkpt lat="45.22486" lon="4.55332">
        <ele>616</ele>
        <time>2020-06-08T07:05:09Z</time>
      </trkpt>
      <trkpt lat="45.22484" lon="4.55306">
        <ele>619</ele>
        <time>2020-06-08T07:05:13Z</time>
      </trkpt>
      <trkpt lat="45.22469" lon="4.55245">
        <ele>623</ele>
        <time>2020-06-08T07:05:24Z</time>
      </trkpt>
      <trkpt lat="45.22457" lon="4.55175">
        <ele>632</ele>
        <time>2020-06-08T07:05:36Z</time>
      </trkpt>
      <trkpt lat="45.22448" lon="4.55083">
        <ele>644</ele>
        <time>2020-06-08T07:05:51Z</time>
      </trkpt>
      <trkpt lat="45.22436" lon="4.55064">
        <ele>645</ele>
        <time>2020-06-08T07:05:55Z</time>
      </trkpt>
      <trkpt lat="45.22427" lon="4.55008">
        <ele>650</ele>
        <time>2020-06-08T07:06:05Z</time>
      </trkpt>
      <trkpt lat="45.2243" lon="4.54974">
        <ele>653</ele>
        <time>2020-06-08T07:06:10Z</time>
      </trkpt>
      <trkpt lat="45.2244" lon="4.54935">
        <ele>658</ele>
        <time>2020-06-08T07:06:17Z</time>
      </trkpt>
      <trkpt lat="45.22444" lon="4.54894">
        <ele>663</ele>
        <time>2020-06-08T07:06:24Z</time>
      </trkpt>
      <trkpt lat="45.22439" lon="4.54852">
        <ele>666</ele>
        <time>2020-06-08T07:06:31Z</time>
      </trkpt>
      <trkpt lat="45.22442" lon="4.54819">
        <ele>668</ele>
        <time>2020-06-08T07:06:36Z</time>
      </trkpt>
      <trkpt lat="45.22423" lon="4.54794">
        <ele>666</ele>
        <time>2020-06-08T07:06:42Z</time>
      </trkpt>
      <trkpt lat="45.22412" lon="4.54762">
        <ele>664</ele>
        <time>2020-06-08T07:06:48Z</time>
      </trkpt>
      <trkpt lat="45.22414" lon="4.54722">
        <ele>662</ele>
        <time>2020-06-08T07:06:55Z</time>
      </trkpt>
      <trkpt lat="45.22402" lon="4.54696">
        <ele>657</ele>
        <time>2020-06-08T07:07:00Z</time>
      </trkpt>
      <trkpt lat="45.22408" lon="4.54636">
        <ele>651</ele>
        <time>2020-06-08T07:07:10Z</time>
      </trkpt>
      <trkpt lat="45.22443" lon="4.54501">
        <ele>642</ele>
        <time>2020-06-08T07:07:34Z</time>
      </trkpt>
      <trkpt lat="45.22443" lon="4.54446">
        <ele>638</ele>
        <time>2020-06-08T07:07:43Z</time>
      </trkpt>
      <trkpt lat="45.22449" lon="4.54368">
        <ele>637</ele>
        <time>2020-06-08T07:07:56Z</time>
      </trkpt>
      <trkpt lat="45.2244" lon="4.54352">
        <ele>635</ele>
        <time>2020-06-08T07:07:59Z</time>
      </trkpt>
      <trkpt lat="45.22435" lon="4.5437">
        <ele>634</ele>
        <time>2020-06-08T07:08:02Z</time>
      </trkpt>
      <trkpt lat="45.22413" lon="4.54387">
        <ele>630</ele>
        <time>2020-06-08T07:08:08Z</time>
      </trkpt>
      <trkpt lat="45.22396" lon="4.54396">
        <ele>627</ele>
        <time>2020-06-08T07:08:12Z</time>
      </trkpt>
      <trkpt lat="45.22374" lon="4.54448">
        <ele>626</ele>
        <time>2020-06-08T07:08:22Z</time>
      </trkpt>
      <trkpt lat="45.22336" lon="4.54493">
        <ele>622</ele>
        <time>2020-06-08T07:08:34Z</time>
      </trkpt>
      <trkpt lat="45.22322" lon="4.54469">
        <ele>620</ele>
        <time>2020-06-08T07:08:39Z</time>
      </trkpt>
      <trkpt lat="45.22308" lon="4.54436">
        <ele>617</ele>
        <time>2020-06-08T07:08:45Z</time>
      </trkpt>
      <trkpt lat="45.22303" lon="4.54346">
        <ele>615</ele>
        <time>2020-06-08T07:09:00Z</time>
      </trkpt>
      <trkpt lat="45.22292" lon="4.54305">
        <ele>616</ele>
        <time>2020-06-08T07:09:07Z</time>
      </trkpt>
      <trkpt lat="45.22287" lon="4.54269">
        <ele>617</ele>
        <time>2020-06-08T07:09:13Z</time>
      </trkpt>
      <trkpt lat="45.22276" lon="4.54248">
        <ele>618</ele>
        <time>2020-06-08T07:09:18Z</time>
      </trkpt>
      <trkpt lat="45.22256" lon="4.5426">
        <ele>618</ele>
        <time>2020-06-08T07:09:23Z</time>
      </trkpt>
      <trkpt lat="45.22225" lon="4.54285">
        <ele>621</ele>
        <time>2020-06-08T07:09:31Z</time>
      </trkpt>
      <trkpt lat="45.22181" lon="4.54296">
        <ele>625</ele>
        <time>2020-06-08T07:09:41Z</time>
      </trkpt>
      <trkpt lat="45.22119" lon="4.54271">
        <ele>633</ele>
        <time>2020-06-08T07:09:57Z</time>
      </trkpt>
      <trkpt lat="45.22078" lon="4.54271">
        <ele>632</ele>
        <time>2020-06-08T07:10:06Z</time>
      </trkpt>
      <trkpt lat="45.2206" lon="4.54251">
        <ele>636</ele>
        <time>2020-06-08T07:10:11Z</time>
      </trkpt>
      <trkpt lat="45.22028" lon="4.54206">
        <ele>645</ele>
        <time>2020-06-08T07:10:22Z</time>
      </trkpt>
      <trkpt lat="45.21987" lon="4.54157">
        <ele>651</ele>
        <time>2020-06-08T07:10:34Z</time>
      </trkpt>
      <trkpt lat="45.21963" lon="4.54116">
        <ele>657</ele>
        <time>2020-06-08T07:10:43Z</time>
      </trkpt>
      <trkpt lat="45.21923" lon="4.54065">
        <ele>660</ele>
        <time>2020-06-08T07:10:56Z</time>
      </trkpt>
      <trkpt lat="45.21879" lon="4.53993">
        <ele>670</ele>
        <time>2020-06-08T07:11:11Z</time>
      </trkpt>
      <trkpt lat="45.21854" lon="4.53959">
        <ele>672</ele>
        <time>2020-06-08T07:11:20Z</time>
      </trkpt>
      <trkpt lat="45.21837" lon="4.53947">
        <ele>670</ele>
        <time>2020-06-08T07:11:24Z</time>
      </trkpt>
      <trkpt lat="45.21791" lon="4.53814">
        <ele>682</ele>
        <time>2020-06-08T07:11:48Z</time>
      </trkpt>
      <trkpt lat="45.21781" lon="4.5376">
        <ele>688</ele>
        <time>2020-06-08T07:11:58Z</time>
      </trkpt>
      <trkpt lat="45.21769" lon="4.53648">
        <ele>700</ele>
        <time>2020-06-08T07:12:16Z</time>
      </trkpt>
      <trkpt lat="45.2175" lon="4.53584">
        <ele>705</ele>
        <time>2020-06-08T07:12:28Z</time>
      </trkpt>
      <trkpt lat="45.21729" lon="4.53526">
        <ele>706</ele>
        <time>2020-06-08T07:12:38Z</time>
      </trkpt>
      <trkpt lat="45.21654" lon="4.53388">
        <ele>706</ele>
        <time>2020-06-08T07:13:07Z</time>
      </trkpt>
      <trkpt lat="45.21637" lon="4.53329">
        <ele>713</ele>
        <time>2020-06-08T07:13:18Z</time>
      </trkpt>
      <trkpt lat="45.21622" lon="4.53264">
        <ele>720</ele>
        <time>2020-06-08T07:13:29Z</time>
      </trkpt>
      <trkpt lat="45.21561" lon="4.53208">
        <ele>721</ele>
        <time>2020-06-08T07:13:46Z</time>
      </trkpt>
      <trkpt lat="45.21524" lon="4.53162">
        <ele>725</ele>
        <time>2020-06-08T07:13:57Z</time>
      </trkpt>
      <trkpt lat="45.21519" lon="4.531">
        <ele>733</ele>
        <time>2020-06-08T07:14:07Z</time>
      </trkpt>
      <trkpt lat="45.21523" lon="4.53027">
        <ele>738</ele>
        <time>2020-06-08T07:14:20Z</time>
      </trkpt>
      <trkpt lat="45.21531" lon="4.5295">
        <ele>746</ele>
        <time>2020-06-08T07:14:32Z</time>
      </trkpt>
      <trkpt lat="45.21522" lon="4.5291">
        <ele>750</ele>
        <time>2020-06-08T07:14:39Z</time>
      </trkpt>
      <trkpt lat="45.21482" lon="4.52923">
        <ele>745</ele>
        <time>2020-06-08T07:14:49Z</time>
      </trkpt>
      <trkpt lat="45.21435" lon="4.52967">
        <ele>737</ele>
        <time>2020-06-08T07:15:02Z</time>
      </trkpt>
      <trkpt lat="45.21402" lon="4.52968">
        <ele>734</ele>
        <time>2020-06-08T07:15:10Z</time>
      </trkpt>
      <trkpt lat="45.21369" lon="4.52939">
        <ele>736</ele>
        <time>2020-06-08T07:15:19Z</time>
      </trkpt>
      <trkpt lat="45.21317" lon="4.52873">
        <ele>741</ele>
        <time>2020-06-08T07:15:35Z</time>
      </trkpt>
      <trkpt lat="45.21288" lon="4.52825">
        <ele>744</ele>
        <time>2020-06-08T07:15:45Z</time>
      </trkpt>
      <trkpt lat="45.21169" lon="4.52683">
        <ele>749</ele>
        <time>2020-06-08T07:16:22Z</time>
      </trkpt>
      <trkpt lat="45.21087" lon="4.5262">
        <ele>748</ele>
        <time>2020-06-08T07:16:44Z</time>
      </trkpt>
      <trkpt lat="45.21074" lon="4.52574">
        <ele>754</ele>
        <time>2020-06-08T07:16:52Z</time>
      </trkpt>
      <trkpt lat="45.2104" lon="4.52495">
        <ele>763</ele>
        <time>2020-06-08T07:17:07Z</time>
      </trkpt>
      <trkpt lat="45.21016" lon="4.52479">
        <ele>764</ele>
        <time>2020-06-08T07:17:13Z</time>
      </trkpt>
      <trkpt lat="45.21004" lon="4.52499">
        <ele>761</ele>
        <time>2020-06-08T07:17:17Z</time>
      </trkpt>
      <trkpt lat="45.21016" lon="4.52609">
        <ele>759</ele>
        <time>2020-06-08T07:17:36Z</time>
      </trkpt>
      <trkpt lat="45.21014" lon="4.52761">
        <ele>753</ele>
        <time>2020-06-08T07:18:01Z</time>
      </trkpt>
      <trkpt lat="45.21003" lon="4.52793">
        <ele>753</ele>
        <time>2020-06-08T07:18:07Z</time>
      </trkpt>
      <trkpt lat="45.20997" lon="4.52839">
        <ele>752</ele>
        <time>2020-06-08T07:18:14Z</time>
      </trkpt>
      <trkpt lat="45.20991" lon="4.52965">
        <ele>761</ele>
        <time>2020-06-08T07:18:35Z</time>
      </trkpt>
      <trkpt lat="45.21003" lon="4.53032">
        <ele>763</ele>
        <time>2020-06-08T07:18:46Z</time>
      </trkpt>
      <trkpt lat="45.21002" lon="4.53078">
        <ele>766</ele>
        <time>2020-06-08T07:18:54Z</time>
      </trkpt>
      <trkpt lat="45.2106" lon="4.53409">
        <ele>769</ele>
        <time>2020-06-08T07:19:50Z</time>
      </trkpt>
      <trkpt lat="45.21095" lon="4.53571">
        <ele>779</ele>
        <time>2020-06-08T07:20:18Z</time>
      </trkpt>
      <trkpt lat="45.21107" lon="4.53673">
        <ele>786</ele>
        <time>2020-06-08T07:20:35Z</time>
      </trkpt>
      <trkpt lat="45.21108" lon="4.53712">
        <ele>786</ele>
        <time>2020-06-08T07:20:41Z</time>
      </trkpt>
      <trkpt lat="45.21079" lon="4.53892">
        <ele>792</ele>
        <time>2020-06-08T07:21:12Z</time>
      </trkpt>
      <trkpt lat="45.21077" lon="4.53995">
        <ele>795</ele>
        <time>2020-06-08T07:21:29Z</time>
      </trkpt>
      <trkpt lat="45.21091" lon="4.54083">
        <ele>800</ele>
        <time>2020-06-08T07:21:44Z</time>
      </trkpt>
      <trkpt lat="45.21096" lon="4.54157">
        <ele>800</ele>
        <time>2020-06-08T07:21:56Z</time>
      </trkpt>
      <trkpt lat="45.21114" lon="4.5433">
        <ele>803</ele>
        <time>2020-06-08T07:22:25Z</time>
      </trkpt>
      <trkpt lat="45.21108" lon="4.54362">
        <ele>806</ele>
        <time>2020-06-08T07:22:30Z</time>
      </trkpt>
      <trkpt lat="45.21065" lon="4.54312">
        <ele>813</ele>
        <time>2020-06-08T07:22:43Z</time>
      </trkpt>
      <trkpt lat="45.21031" lon="4.54258">
        <ele>816</ele>
        <time>2020-06-08T07:22:55Z</time>
      </trkpt>
      <trkpt lat="45.21008" lon="4.54207">
        <ele>819</ele>
        <time>2020-06-08T07:23:05Z</time>
      </trkpt>
      <trkpt lat="45.20986" lon="4.54169">
        <ele>824</ele>
        <time>2020-06-08T07:23:13Z</time>
      </trkpt>
      <trkpt lat="45.20976" lon="4.54148">
        <ele>825</ele>
        <time>2020-06-08T07:23:17Z</time>
      </trkpt>
      <trkpt lat="45.20956" lon="4.54087">
        <ele>826</ele>
        <time>2020-06-08T07:23:28Z</time>
      </trkpt>
      <trkpt lat="45.2093" lon="4.54026">
        <ele>832</ele>
        <time>2020-06-08T07:23:40Z</time>
      </trkpt>
      <trkpt lat="45.20891" lon="4.53896">
        <ele>846</ele>
        <time>2020-06-08T07:24:03Z</time>
      </trkpt>
      <trkpt lat="45.20851" lon="4.53806">
        <ele>858</ele>
        <time>2020-06-08T07:24:21Z</time>
      </trkpt>
      <trkpt lat="45.20776" lon="4.53676">
        <ele>867</ele>
        <time>2020-06-08T07:24:48Z</time>
      </trkpt>
      <trkpt lat="45.20711" lon="4.53628">
        <ele>869</ele>
        <time>2020-06-08T07:25:06Z</time>
      </trkpt>
      <trkpt lat="45.20677" lon="4.5362">
        <ele>868</ele>
        <time>2020-06-08T07:25:14Z</time>
      </trkpt>
      <trkpt lat="45.20662" lon="4.53608">
        <ele>869</ele>
        <time>2020-06-08T07:25:18Z</time>
      </trkpt>
      <trkpt lat="45.20628" lon="4.53563">
        <ele>873</ele>
        <time>2020-06-08T07:25:28Z</time>
      </trkpt>
      <trkpt lat="45.20618" lon="4.53556">
        <ele>873</ele>
        <time>2020-06-08T07:25:31Z</time>
      </trkpt>
      <trkpt lat="45.20601" lon="4.53547">
        <ele>874</ele>
        <time>2020-06-08T07:25:35Z</time>
      </trkpt>
      <trkpt lat="45.20556" lon="4.53534">
        <ele>873</ele>
        <time>2020-06-08T07:25:46Z</time>
      </trkpt>
      <trkpt lat="45.20508" lon="4.53527">
        <ele>868</ele>
        <time>2020-06-08T07:25:57Z</time>
      </trkpt>
      <trkpt lat="45.2046" lon="4.53526">
        <ele>866</ele>
        <time>2020-06-08T07:26:08Z</time>
      </trkpt>
      <trkpt lat="45.20433" lon="4.53534">
        <ele>862</ele>
        <time>2020-06-08T07:26:15Z</time>
      </trkpt>
      <trkpt lat="45.20398" lon="4.5354">
        <ele>859</ele>
        <time>2020-06-08T07:26:23Z</time>
      </trkpt>
      <trkpt lat="45.20361" lon="4.53534">
        <ele>862</ele>
        <time>2020-06-08T07:26:32Z</time>
      </trkpt>
      <trkpt lat="45.20342" lon="4.53528">
        <ele>865</ele>
        <time>2020-06-08T07:26:36Z</time>
      </trkpt>
      <trkpt lat="45.20294" lon="4.53529">
        <ele>863</ele>
        <time>2020-06-08T07:26:48Z</time>
      </trkpt>
      <trkpt lat="45.20231" lon="4.53516">
        <ele>860</ele>
        <time>2020-06-08T07:27:02Z</time>
      </trkpt>
      <trkpt lat="45.20206" lon="4.53519">
        <ele>852</ele>
        <time>2020-06-08T07:27:08Z</time>
      </trkpt>
      <trkpt lat="45.20186" lon="4.5351">
        <ele>849</ele>
        <time>2020-06-08T07:27:13Z</time>
      </trkpt>
      <trkpt lat="45.20169" lon="4.53496">
        <ele>848</ele>
        <time>2020-06-08T07:27:18Z</time>
      </trkpt>
      <trkpt lat="45.20147" lon="4.5346">
        <ele>845</ele>
        <time>2020-06-08T07:27:26Z</time>
      </trkpt>
      <trkpt lat="45.20103" lon="4.53399">
        <ele>835</ele>
        <time>2020-06-08T07:27:40Z</time>
      </trkpt>
      <trkpt lat="45.20076" lon="4.53357">
        <ele>831</ele>
        <time>2020-06-08T07:27:49Z</time>
      </trkpt>
      <trkpt lat="45.20059" lon="4.53336">
        <ele>830</ele>
        <time>2020-06-08T07:27:55Z</time>
      </trkpt>
      <trkpt lat="45.2003" lon="4.53306">
        <ele>827</ele>
        <time>2020-06-08T07:28:03Z</time>
      </trkpt>
      <trkpt lat="45.2" lon="4.53289">
        <ele>822</ele>
        <time>2020-06-08T07:28:11Z</time>
      </trkpt>
      <trkpt lat="45.19989" lon="4.5328">
        <ele>822</ele>
        <time>2020-06-08T07:28:14Z</time>
      </trkpt>
      <trkpt lat="45.19962" lon="4.53244">
        <ele>823</ele>
        <time>2020-06-08T07:28:22Z</time>
      </trkpt>
      <trkpt lat="45.19918" lon="4.53218">
        <ele>817</ele>
        <time>2020-06-08T07:28:33Z</time>
      </trkpt>
      <trkpt lat="45.19897" lon="4.53216">
        <ele>817</ele>
        <time>2020-06-08T07:28:38Z</time>
      </trkpt>
      <trkpt lat="45.19883" lon="4.53189">
        <ele>819</ele>
        <time>2020-06-08T07:28:44Z</time>
      </trkpt>
      <trkpt lat="45.19864" lon="4.53173">
        <ele>818</ele>
        <time>2020-06-08T07:28:49Z</time>
      </trkpt>
      <trkpt lat="45.1986" lon="4.53152">
        <ele>817</ele>
        <time>2020-06-08T07:28:52Z</time>
      </trkpt>
      <trkpt lat="45.19835" lon="4.53134">
        <ele>813</ele>
        <time>2020-06-08T07:28:59Z</time>
      </trkpt>
      <trkpt lat="45.19829" lon="4.5312">
        <ele>811</ele>
        <time>2020-06-08T07:29:02Z</time>
      </trkpt>
      <trkpt lat="45.19828" lon="4.53039">
        <ele>807</ele>
        <time>2020-06-08T07:29:15Z</time>
      </trkpt>
      <trkpt lat="45.19838" lon="4.52977">
        <ele>808</ele>
        <time>2020-06-08T07:29:26Z</time>
      </trkpt>
      <trkpt lat="45.19838" lon="4.52956">
        <ele>808</ele>
        <time>2020-06-08T07:29:29Z</time>
      </trkpt>
      <trkpt lat="45.19835" lon="4.52932">
        <ele>807</ele>
        <time>2020-06-08T07:29:33Z</time>
      </trkpt>
      <trkpt lat="45.19816" lon="4.52864">
        <ele>802</ele>
        <time>2020-06-08T07:29:45Z</time>
      </trkpt>
      <trkpt lat="45.19811" lon="4.52806">
        <ele>807</ele>
        <time>2020-06-08T07:29:55Z</time>
      </trkpt>
      <trkpt lat="45.19803" lon="4.52784">
        <ele>808</ele>
        <time>2020-06-08T07:29:59Z</time>
      </trkpt>
      <trkpt lat="45.19768" lon="4.52719">
        <ele>810</ele>
        <time>2020-06-08T07:30:12Z</time>
      </trkpt>
      <trkpt lat="45.19757" lon="4.52705">
        <ele>811</ele>
        <time>2020-06-08T07:30:16Z</time>
      </trkpt>
      <trkpt lat="45.19726" lon="4.52683">
        <ele>809</ele>
        <time>2020-06-08T07:30:24Z</time>
      </trkpt>
      <trkpt lat="45.19707" lon="4.52662">
        <ele>810</ele>
        <time>2020-06-08T07:30:29Z</time>
      </trkpt>
      <trkpt lat="45.19689" lon="4.52616">
        <ele>811</ele>
        <time>2020-06-08T07:30:38Z</time>
      </trkpt>
      <trkpt lat="45.19687" lon="4.52572">
        <ele>814</ele>
        <time>2020-06-08T07:30:45Z</time>
      </trkpt>
      <trkpt lat="45.19693" lon="4.52538">
        <ele>815</ele>
        <time>2020-06-08T07:30:51Z</time>
      </trkpt>
      <trkpt lat="45.19718" lon="4.52487">
        <ele>821</ele>
        <time>2020-06-08T07:31:01Z</time>
      </trkpt>
      <trkpt lat="45.19747" lon="4.52393">
        <ele>819</ele>
        <time>2020-06-08T07:31:18Z</time>
      </trkpt>
      <trkpt lat="45.19769" lon="4.52346">
        <ele>821</ele>
        <time>2020-06-08T07:31:27Z</time>
      </trkpt>
      <trkpt lat="45.19758" lon="4.52327">
        <ele>815</ele>
        <time>2020-06-08T07:31:31Z</time>
      </trkpt>
      <trkpt lat="45.19736" lon="4.52312">
        <ele>809</ele>
        <time>2020-06-08T07:31:37Z</time>
      </trkpt>
      <trkpt lat="45.19714" lon="4.52281">
        <ele>804</ele>
        <time>2020-06-08T07:31:44Z</time>
      </trkpt>
      <trkpt lat="45.19685" lon="4.52206">
        <ele>798</ele>
        <time>2020-06-08T07:31:59Z</time>
      </trkpt>
      <trkpt lat="45.19658" lon="4.52111">
        <ele>788</ele>
        <time>2020-06-08T07:32:15Z</time>
      </trkpt>
      <trkpt lat="45.1965" lon="4.5204">
        <ele>782</ele>
        <time>2020-06-08T07:32:27Z</time>
      </trkpt>
      <trkpt lat="45.1965" lon="4.51967">
        <ele>779</ele>
        <time>2020-06-08T07:32:39Z</time>
      </trkpt>
      <trkpt lat="45.19655" lon="4.51893">
        <ele>779</ele>
        <time>2020-06-08T07:32:51Z</time>
      </trkpt>
      <trkpt lat="45.19652" lon="4.51812">
        <ele>772</ele>
        <time>2020-06-08T07:33:05Z</time>
      </trkpt>
      <trkpt lat="45.19654" lon="4.51742">
        <ele>768</ele>
        <time>2020-06-08T07:33:16Z</time>
      </trkpt>
      <trkpt lat="45.19664" lon="4.51674">
        <ele>765</ele>
        <time>2020-06-08T07:33:28Z</time>
      </trkpt>
      <trkpt lat="45.19668" lon="4.51619">
        <ele>762</ele>
        <time>2020-06-08T07:33:37Z</time>
      </trkpt>
      <trkpt lat="45.19677" lon="4.51581">
        <ele>763</ele>
        <time>2020-06-08T07:33:43Z</time>
      </trkpt>
      <trkpt lat="45.19684" lon="4.51525">
        <ele>759</ele>
        <time>2020-06-08T07:33:53Z</time>
      </trkpt>
      <trkpt lat="45.19686" lon="4.5147">
        <ele>752</ele>
        <time>2020-06-08T07:34:02Z</time>
      </trkpt>
      <trkpt lat="45.19704" lon="4.51402">
        <ele>754</ele>
        <time>2020-06-08T07:34:14Z</time>
      </trkpt>
      <trkpt lat="45.19707" lon="4.5136">
        <ele>749</ele>
        <time>2020-06-08T07:34:21Z</time>
      </trkpt>
      <trkpt lat="45.19733" lon="4.51247">
        <ele>747</ele>
        <time>2020-06-08T07:34:40Z</time>
      </trkpt>
      <trkpt lat="45.1974" lon="4.51207">
        <ele>744</ele>
        <time>2020-06-08T07:34:47Z</time>
      </trkpt>
      <trkpt lat="45.19751" lon="4.51167">
        <ele>742</ele>
        <time>2020-06-08T07:34:54Z</time>
      </trkpt>
      <trkpt lat="45.19757" lon="4.5116">
        <ele>744</ele>
        <time>2020-06-08T07:34:56Z</time>
      </trkpt>
      <trkpt lat="45.1976" lon="4.51148">
        <ele>744</ele>
        <time>2020-06-08T07:34:58Z</time>
      </trkpt>
      <trkpt lat="45.19759" lon="4.51134">
        <ele>741</ele>
        <time>2020-06-08T07:35:00Z</time>
      </trkpt>
      <trkpt lat="45.19765" lon="4.51085">
        <ele>738</ele>
        <time>2020-06-08T07:35:09Z</time>
      </trkpt>
      <trkpt lat="45.19771" lon="4.50982">
        <ele>739</ele>
        <time>2020-06-08T07:35:26Z</time>
      </trkpt>
      <trkpt lat="45.19787" lon="4.50912">
        <ele>744</ele>
        <time>2020-06-08T07:35:38Z</time>
      </trkpt>
      <trkpt lat="45.19812" lon="4.50782">
        <ele>748</ele>
        <time>2020-06-08T07:36:00Z</time>
      </trkpt>
      <trkpt lat="45.19826" lon="4.50741">
        <ele>748</ele>
        <time>2020-06-08T07:36:07Z</time>
      </trkpt>
      <trkpt lat="45.19829" lon="4.50714">
        <ele>751</ele>
        <time>2020-06-08T07:36:12Z</time>
      </trkpt>
      <trkpt lat="45.1982" lon="4.50696">
        <ele>756</ele>
        <time>2020-06-08T07:36:16Z</time>
      </trkpt>
      <trkpt lat="45.19797" lon="4.50697">
        <ele>763</ele>
        <time>2020-06-08T07:36:21Z</time>
      </trkpt>
      <trkpt lat="45.19781" lon="4.5072">
        <ele>762</ele>
        <time>2020-06-08T07:36:26Z</time>
      </trkpt>
      <trkpt lat="45.1967" lon="4.50924">
        <ele>753</ele>
        <time>2020-06-08T07:37:09Z</time>
      </trkpt>
      <trkpt lat="45.19644" lon="4.50955">
        <ele>755</ele>
        <time>2020-06-08T07:37:17Z</time>
      </trkpt>
      <trkpt lat="45.196" lon="4.50979">
        <ele>765</ele>
        <time>2020-06-08T07:37:28Z</time>
      </trkpt>
      <trkpt lat="45.19578" lon="4.51007">
        <ele>768</ele>
        <time>2020-06-08T07:37:34Z</time>
      </trkpt>
      <trkpt lat="45.19553" lon="4.51057">
        <ele>772</ele>
        <time>2020-06-08T07:37:45Z</time>
      </trkpt>
      <trkpt lat="45.19527" lon="4.51079">
        <ele>779</ele>
        <time>2020-06-08T07:37:52Z</time>
      </trkpt>
      <trkpt lat="45.19494" lon="4.51099">
        <ele>789</ele>
        <time>2020-06-08T07:38:00Z</time>
      </trkpt>
      <trkpt lat="45.19445" lon="4.51119">
        <ele>802</ele>
        <time>2020-06-08T07:38:12Z</time>
      </trkpt>
      <trkpt lat="45.19434" lon="4.51131">
        <ele>803</ele>
        <time>2020-06-08T07:38:15Z</time>
      </trkpt>
      <trkpt lat="45.19418" lon="4.51155">
        <ele>803</ele>
        <time>2020-06-08T07:38:21Z</time>
      </trkpt>
      <trkpt lat="45.19405" lon="4.51165">
        <ele>804</ele>
        <time>2020-06-08T07:38:24Z</time>
      </trkpt>
      <trkpt lat="45.19393" lon="4.51167">
        <ele>808</ele>
        <time>2020-06-08T07:38:27Z</time>
      </trkpt>
      <trkpt lat="45.1938" lon="4.51164">
        <ele>813</ele>
        <time>2020-06-08T07:38:30Z</time>
      </trkpt>
      <trkpt lat="45.19368" lon="4.51166">
        <ele>817</ele>
        <time>2020-06-08T07:38:33Z</time>
      </trkpt>
      <trkpt lat="45.19361" lon="4.51175">
        <ele>816</ele>
        <time>2020-06-08T07:38:35Z</time>
      </trkpt>
      <trkpt lat="45.19342" lon="4.51225">
        <ele>810</ele>
        <time>2020-06-08T07:38:44Z</time>
      </trkpt>
      <trkpt lat="45.19307" lon="4.51258">
        <ele>814</ele>
        <time>2020-06-08T07:38:54Z</time>
      </trkpt>
      <trkpt lat="45.19282" lon="4.51296">
        <ele>816</ele>
        <time>2020-06-08T07:39:03Z</time>
      </trkpt>
      <trkpt lat="45.19256" lon="4.51325">
        <ele>819</ele>
        <time>2020-06-08T07:39:10Z</time>
      </trkpt>
      <trkpt lat="45.19223" lon="4.51344">
        <ele>825</ele>
        <time>2020-06-08T07:39:19Z</time>
      </trkpt>
      <trkpt lat="45.19211" lon="4.51365">
        <ele>825</ele>
        <time>2020-06-08T07:39:23Z</time>
      </trkpt>
      <trkpt lat="45.1919" lon="4.51366">
        <ele>830</ele>
        <time>2020-06-08T07:39:28Z</time>
      </trkpt>
      <trkpt lat="45.19182" lon="4.51389">
        <ele>829</ele>
        <time>2020-06-08T07:39:32Z</time>
      </trkpt>
      <trkpt lat="45.19174" lon="4.51432">
        <ele>828</ele>
        <time>2020-06-08T07:39:40Z</time>
      </trkpt>
      <trkpt lat="45.19173" lon="4.51476">
        <ele>827</ele>
        <time>2020-06-08T07:39:47Z</time>
      </trkpt>
      <trkpt lat="45.19176" lon="4.51508">
        <ele>825</ele>
        <time>2020-06-08T07:39:52Z</time>
      </trkpt>
      <trkpt lat="45.19172" lon="4.51517">
        <ele>826</ele>
        <time>2020-06-08T07:39:54Z</time>
      </trkpt>
      <trkpt lat="45.19141" lon="4.51458">
        <ele>829</ele>
        <time>2020-06-08T07:40:06Z</time>
      </trkpt>
      <trkpt lat="45.19115" lon="4.51425">
        <ele>829</ele>
        <time>2020-06-08T07:40:14Z</time>
      </trkpt>
      <trkpt lat="45.19116" lon="4.51407">
        <ele>830</ele>
        <time>2020-06-08T07:40:17Z</time>
      </trkpt>
      <trkpt lat="45.19122" lon="4.51381">
        <ele>833</ele>
        <time>2020-06-08T07:40:22Z</time>
      </trkpt>
      <trkpt lat="45.19122" lon="4.51361">
        <ele>835</ele>
        <time>2020-06-08T07:40:25Z</time>
      </trkpt>
      <trkpt lat="45.19111" lon="4.51343">
        <ele>836</ele>
        <time>2020-06-08T07:40:29Z</time>
      </trkpt>
      <trkpt lat="45.19082" lon="4.51317">
        <ele>837</ele>
        <time>2020-06-08T07:40:37Z</time>
      </trkpt>
      <trkpt lat="45.19065" lon="4.51288">
        <ele>837</ele>
        <time>2020-06-08T07:40:43Z</time>
      </trkpt>
      <trkpt lat="45.19116" lon="4.51314">
        <ele>840</ele>
        <time>2020-06-08T07:40:56Z</time>
      </trkpt>
      <trkpt lat="45.1913" lon="4.51308">
        <ele>842</ele>
        <time>2020-06-08T07:40:59Z</time>
      </trkpt>
      <trkpt lat="45.19144" lon="4.5126">
        <ele>850</ele>
        <time>2020-06-08T07:41:08Z</time>
      </trkpt>
      <trkpt lat="45.19142" lon="4.51237">
        <ele>854</ele>
        <time>2020-06-08T07:41:12Z</time>
      </trkpt>
      <trkpt lat="45.19099" lon="4.51195">
        <ele>861</ele>
        <time>2020-06-08T07:41:24Z</time>
      </trkpt>
      <trkpt lat="45.19039" lon="4.51128">
        <ele>865</ele>
        <time>2020-06-08T07:41:42Z</time>
      </trkpt>
      <trkpt lat="45.19001" lon="4.51108">
        <ele>862</ele>
        <time>2020-06-08T07:41:51Z</time>
      </trkpt>
      <trkpt lat="45.18994" lon="4.51096">
        <ele>864</ele>
        <time>2020-06-08T07:41:54Z</time>
      </trkpt>
      <trkpt lat="45.18991" lon="4.51075">
        <ele>868</ele>
        <time>2020-06-08T07:41:57Z</time>
      </trkpt>
      <trkpt lat="45.18966" lon="4.51014">
        <ele>875</ele>
        <time>2020-06-08T07:42:09Z</time>
      </trkpt>
      <trkpt lat="45.18957" lon="4.51006">
        <ele>874</ele>
        <time>2020-06-08T07:42:11Z</time>
      </trkpt>
      <trkpt lat="45.18938" lon="4.50976">
        <ele>874</ele>
        <time>2020-06-08T07:42:18Z</time>
      </trkpt>
      <trkpt lat="45.18915" lon="4.50892">
        <ele>879</ele>
        <time>2020-06-08T07:42:33Z</time>
      </trkpt>
      <trkpt lat="45.18888" lon="4.50769">
        <ele>892</ele>
        <time>2020-06-08T07:42:54Z</time>
      </trkpt>
      <trkpt lat="45.18859" lon="4.50752">
        <ele>886</ele>
        <time>2020-06-08T07:43:01Z</time>
      </trkpt>
      <trkpt lat="45.18787" lon="4.50722">
        <ele>874</ele>
        <time>2020-06-08T07:43:19Z</time>
      </trkpt>
      <trkpt lat="45.18762" lon="4.50703">
        <ele>872</ele>
        <time>2020-06-08T07:43:25Z</time>
      </trkpt>
      <trkpt lat="45.18736" lon="4.5066">
        <ele>869</ele>
        <time>2020-06-08T07:43:35Z</time>
      </trkpt>
      <trkpt lat="45.18742" lon="4.50593">
        <ele>873</ele>
        <time>2020-06-08T07:43:46Z</time>
      </trkpt>
      <trkpt lat="45.18778" lon="4.50505">
        <ele>887</ele>
        <time>2020-06-08T07:44:03Z</time>
      </trkpt>
      <trkpt lat="45.18792" lon="4.50463">
        <ele>895</ele>
        <time>2020-06-08T07:44:10Z</time>
      </trkpt>
      <trkpt lat="45.18794" lon="4.50421">
        <ele>896</ele>
        <time>2020-06-08T07:44:17Z</time>
      </trkpt>
      <trkpt lat="45.18791" lon="4.50399">
        <ele>898</ele>
        <time>2020-06-08T07:44:21Z</time>
      </trkpt>
      <trkpt lat="45.18772" lon="4.5039">
        <ele>892</ele>
        <time>2020-06-08T07:44:25Z</time>
      </trkpt>
      <trkpt lat="45.18709" lon="4.50384">
        <ele>880</ele>
        <time>2020-06-08T07:44:40Z</time>
      </trkpt>
      <trkpt lat="45.18665" lon="4.50385">
        <ele>874</ele>
        <time>2020-06-08T07:44:50Z</time>
      </trkpt>
      <trkpt lat="45.18633" lon="4.50391">
        <ele>871</ele>
        <time>2020-06-08T07:44:58Z</time>
      </trkpt>
      <trkpt lat="45.18589" lon="4.5041">
        <ele>863</ele>
        <time>2020-06-08T07:45:09Z</time>
      </trkpt>
      <trkpt lat="45.18546" lon="4.50433">
        <ele>852</ele>
        <time>2020-06-08T07:45:19Z</time>
      </trkpt>
      <trkpt lat="45.18516" lon="4.50426">
        <ele>852</ele>
        <time>2020-06-08T07:45:27Z</time>
      </trkpt>
      <trkpt lat="45.18479" lon="4.50402">
        <ele>849</ele>
        <time>2020-06-08T07:45:36Z</time>
      </trkpt>
      <trkpt lat="45.18453" lon="4.50357">
        <ele>848</ele>
        <time>2020-06-08T07:45:46Z</time>
      </trkpt>
      <trkpt lat="45.18429" lon="4.50292">
        <ele>851</ele>
        <time>2020-06-08T07:45:58Z</time>
      </trkpt>
      <trkpt lat="45.18416" lon="4.50269">
        <ele>852</ele>
        <time>2020-06-08T07:46:03Z</time>
      </trkpt>
      <trkpt lat="45.1837" lon="4.50269">
        <ele>841</ele>
        <time>2020-06-08T07:46:13Z</time>
      </trkpt>
      <trkpt lat="45.18351" lon="4.50256">
        <ele>839</ele>
        <time>2020-06-08T07:46:18Z</time>
      </trkpt>
      <trkpt lat="45.18328" lon="4.50222">
        <ele>842</ele>
        <time>2020-06-08T07:46:26Z</time>
      </trkpt>
      <trkpt lat="45.18303" lon="4.50175">
        <ele>844</ele>
        <time>2020-06-08T07:46:36Z</time>
      </trkpt>
      <trkpt lat="45.18251" lon="4.50022">
        <ele>869</ele>
        <time>2020-06-08T07:47:04Z</time>
      </trkpt>
      <trkpt lat="45.18225" lon="4.50028">
        <ele>863</ele>
        <time>2020-06-08T07:47:10Z</time>
      </trkpt>
      <trkpt lat="45.18198" lon="4.50048">
        <ele>853</ele>
        <time>2020-06-08T07:47:17Z</time>
      </trkpt>
      <trkpt lat="45.18181" lon="4.50076">
        <ele>843</ele>
        <time>2020-06-08T07:47:23Z</time>
      </trkpt>
      <trkpt lat="45.18155" lon="4.50078">
        <ele>837</ele>
        <time>2020-06-08T07:47:29Z</time>
      </trkpt>
      <trkpt lat="45.1812" lon="4.50029">
        <ele>834</ele>
        <time>2020-06-08T07:47:41Z</time>
      </trkpt>
      <trkpt lat="45.18089" lon="4.49914">
        <ele>841</ele>
        <time>2020-06-08T07:48:01Z</time>
      </trkpt>
      <trkpt lat="45.18065" lon="4.49867">
        <ele>839</ele>
        <time>2020-06-08T07:48:10Z</time>
      </trkpt>
      <trkpt lat="45.18041" lon="4.49845">
        <ele>831</ele>
        <time>2020-06-08T07:48:17Z</time>
      </trkpt>
      <trkpt lat="45.18013" lon="4.49812">
        <ele>825</ele>
        <time>2020-06-08T07:48:26Z</time>
      </trkpt>
      <trkpt lat="45.17987" lon="4.49766">
        <ele>825</ele>
        <time>2020-06-08T07:48:35Z</time>
      </trkpt>
      <trkpt lat="45.1796" lon="4.49733">
        <ele>819</ele>
        <time>2020-06-08T07:48:44Z</time>
      </trkpt>
      <trkpt lat="45.17937" lon="4.4968">
        <ele>813</ele>
        <time>2020-06-08T07:48:54Z</time>
      </trkpt>
      <trkpt lat="45.17948" lon="4.49606">
        <ele>808</ele>
        <time>2020-06-08T07:49:06Z</time>
      </trkpt>
      <trkpt lat="45.17982" lon="4.49528">
        <ele>804</ele>
        <time>2020-06-08T07:49:21Z</time>
      </trkpt>
      <trkpt lat="45.18014" lon="4.4949">
        <ele>806</ele>
        <time>2020-06-08T07:49:31Z</time>
      </trkpt>
      <trkpt lat="45.17988" lon="4.49501">
        <ele>798</ele>
        <time>2020-06-08T07:49:37Z</time>
      </trkpt>
      <trkpt lat="45.17943" lon="4.49544">
        <ele>792</ele>
        <time>2020-06-08T07:49:50Z</time>
      </trkpt>
      <trkpt lat="45.17883" lon="4.49619">
        <ele>785</ele>
        <time>2020-06-08T07:50:09Z</time>
      </trkpt>
      <trkpt lat="45.17839" lon="4.49653">
        <ele>779</ele>
        <time>2020-06-08T07:50:21Z</time>
      </trkpt>
      <trkpt lat="45.17802" lon="4.49677">
        <ele>775</ele>
        <time>2020-06-08T07:50:30Z</time>
      </trkpt>
      <trkpt lat="45.17704" lon="4.49677">
        <ele>757</ele>
        <time>2020-06-08T07:50:53Z</time>
      </trkpt>
      <trkpt lat="45.17698" lon="4.49656">
        <ele>754</ele>
        <time>2020-06-08T07:50:57Z</time>
      </trkpt>
      <trkpt lat="45.17689" lon="4.49641">
        <ele>750</ele>
        <time>2020-06-08T07:51:00Z</time>
      </trkpt>
      <trkpt lat="45.17668" lon="4.4964">
        <ele>748</ele>
        <time>2020-06-08T07:51:05Z</time>
      </trkpt>
      <trkpt lat="45.1766" lon="4.49665">
        <ele>748</ele>
        <time>2020-06-08T07:51:09Z</time>
      </trkpt>
      <trkpt lat="45.17659" lon="4.497">
        <ele>747</ele>
        <time>2020-06-08T07:51:15Z</time>
      </trkpt>
      <trkpt lat="45.17672" lon="4.49772">
        <ele>745</ele>
        <time>2020-06-08T07:51:27Z</time>
      </trkpt>
      <trkpt lat="45.17703" lon="4.49831">
        <ele>742</ele>
        <time>2020-06-08T07:51:39Z</time>
      </trkpt>
      <trkpt lat="45.17722" lon="4.49853">
        <ele>743</ele>
        <time>2020-06-08T07:51:45Z</time>
      </trkpt>
      <trkpt lat="45.17743" lon="4.49888">
        <ele>741</ele>
        <time>2020-06-08T07:51:53Z</time>
      </trkpt>
      <trkpt lat="45.1775" lon="4.49912">
        <ele>738</ele>
        <time>2020-06-08T07:51:57Z</time>
      </trkpt>
      <trkpt lat="45.17758" lon="4.49956">
        <ele>731</ele>
        <time>2020-06-08T07:52:04Z</time>
      </trkpt>
      <trkpt lat="45.1777" lon="4.49983">
        <ele>727</ele>
        <time>2020-06-08T07:52:10Z</time>
      </trkpt>
      <trkpt lat="45.17779" lon="4.49994">
        <ele>725</ele>
        <time>2020-06-08T07:52:13Z</time>
      </trkpt>
      <trkpt lat="45.17788" lon="4.49996">
        <ele>726</ele>
        <time>2020-06-08T07:52:15Z</time>
      </trkpt>
      <trkpt lat="45.17828" lon="4.49993">
        <ele>730</ele>
        <time>2020-06-08T07:52:24Z</time>
      </trkpt>
      <trkpt lat="45.17863" lon="4.49974">
        <ele>741</ele>
        <time>2020-06-08T07:52:33Z</time>
      </trkpt>
      <trkpt lat="45.17877" lon="4.49983">
        <ele>741</ele>
        <time>2020-06-08T07:52:36Z</time>
      </trkpt>
      <trkpt lat="45.17887" lon="4.50007">
        <ele>737</ele>
        <time>2020-06-08T07:52:41Z</time>
      </trkpt>
      <trkpt lat="45.179" lon="4.50014">
        <ele>738</ele>
        <time>2020-06-08T07:52:44Z</time>
      </trkpt>
      <trkpt lat="45.17904" lon="4.50021">
        <ele>738</ele>
        <time>2020-06-08T07:52:46Z</time>
      </trkpt>
      <trkpt lat="45.17886" lon="4.50099">
        <ele>721</ele>
        <time>2020-06-08T07:52:59Z</time>
      </trkpt>
      <trkpt lat="45.17885" lon="4.50133">
        <ele>714</ele>
        <time>2020-06-08T07:53:05Z</time>
      </trkpt>
      <trkpt lat="45.17877" lon="4.50111">
        <ele>715</ele>
        <time>2020-06-08T07:53:09Z</time>
      </trkpt>
      <trkpt lat="45.17882" lon="4.50039">
        <ele>730</ele>
        <time>2020-06-08T07:53:21Z</time>
      </trkpt>
      <trkpt lat="45.17863" lon="4.50031">
        <ele>727</ele>
        <time>2020-06-08T07:53:25Z</time>
      </trkpt>
      <trkpt lat="45.17835" lon="4.50047">
        <ele>715</ele>
        <time>2020-06-08T07:53:32Z</time>
      </trkpt>
      <trkpt lat="45.17794" lon="4.50064">
        <ele>708</ele>
        <time>2020-06-08T07:53:42Z</time>
      </trkpt>
      <trkpt lat="45.17745" lon="4.50098">
        <ele>695</ele>
        <time>2020-06-08T07:53:55Z</time>
      </trkpt>
      <trkpt lat="45.17724" lon="4.50119">
        <ele>684</ele>
        <time>2020-06-08T07:54:01Z</time>
      </trkpt>
      <trkpt lat="45.17703" lon="4.5011">
        <ele>680</ele>
        <time>2020-06-08T07:54:06Z</time>
      </trkpt>
      <trkpt lat="45.17661" lon="4.50062">
        <ele>679</ele>
        <time>2020-06-08T07:54:19Z</time>
      </trkpt>
      <trkpt lat="45.17644" lon="4.50024">
        <ele>683</ele>
        <time>2020-06-08T07:54:26Z</time>
      </trkpt>
      <trkpt lat="45.17644" lon="4.49984">
        <ele>692</ele>
        <time>2020-06-08T07:54:33Z</time>
      </trkpt>
      <trkpt lat="45.17633" lon="4.49967">
        <ele>693</ele>
        <time>2020-06-08T07:54:37Z</time>
      </trkpt>
      <trkpt lat="45.17591" lon="4.49984">
        <ele>678</ele>
        <time>2020-06-08T07:54:47Z</time>
      </trkpt>
      <trkpt lat="45.1752" lon="4.49965">
        <ele>669</ele>
        <time>2020-06-08T07:55:04Z</time>
      </trkpt>
      <trkpt lat="45.17515" lon="4.49882">
        <ele>679</ele>
        <time>2020-06-08T07:55:17Z</time>
      </trkpt>
      <trkpt lat="45.17503" lon="4.49871">
        <ele>676</ele>
        <time>2020-06-08T07:55:21Z</time>
      </trkpt>
      <trkpt lat="45.1749" lon="4.49853">
        <ele>676</ele>
        <time>2020-06-08T07:55:25Z</time>
      </trkpt>
      <trkpt lat="45.17492" lon="4.49824">
        <ele>679</ele>
        <time>2020-06-08T07:55:30Z</time>
      </trkpt>
      <trkpt lat="45.17503" lon="4.49749">
        <ele>683</ele>
        <time>2020-06-08T07:55:42Z</time>
      </trkpt>
      <trkpt lat="45.17503" lon="4.49723">
        <ele>685</ele>
        <time>2020-06-08T07:55:47Z</time>
      </trkpt>
      <trkpt lat="45.17492" lon="4.4967">
        <ele>688</ele>
        <time>2020-06-08T07:55:56Z</time>
      </trkpt>
      <trkpt lat="45.17495" lon="4.4965">
        <ele>689</ele>
        <time>2020-06-08T07:55:59Z</time>
      </trkpt>
      <trkpt lat="45.17503" lon="4.49625">
        <ele>691</ele>
        <time>2020-06-08T07:56:04Z</time>
      </trkpt>
      <trkpt lat="45.17505" lon="4.49603">
        <ele>693</ele>
        <time>2020-06-08T07:56:07Z</time>
      </trkpt>
      <trkpt lat="45.17494" lon="4.49594">
        <ele>692</ele>
        <time>2020-06-08T07:56:10Z</time>
      </trkpt>
      <trkpt lat="45.17482" lon="4.49605">
        <ele>692</ele>
        <time>2020-06-08T07:56:14Z</time>
      </trkpt>
      <trkpt lat="45.17472" lon="4.49643">
        <ele>689</ele>
        <time>2020-06-08T07:56:20Z</time>
      </trkpt>
      <trkpt lat="45.17468" lon="4.49704">
        <ele>685</ele>
        <time>2020-06-08T07:56:30Z</time>
      </trkpt>
      <trkpt lat="45.17459" lon="4.49721">
        <ele>683</ele>
        <time>2020-06-08T07:56:34Z</time>
      </trkpt>
      <trkpt lat="45.17444" lon="4.49705">
        <ele>684</ele>
        <time>2020-06-08T07:56:38Z</time>
      </trkpt>
      <trkpt lat="45.1743" lon="4.49657">
        <ele>687</ele>
        <time>2020-06-08T07:56:47Z</time>
      </trkpt>
      <trkpt lat="45.17408" lon="4.49632">
        <ele>688</ele>
        <time>2020-06-08T07:56:53Z</time>
      </trkpt>
      <trkpt lat="45.1736" lon="4.49472">
        <ele>695</ele>
        <time>2020-06-08T07:57:22Z</time>
      </trkpt>
      <trkpt lat="45.17349" lon="4.49406">
        <ele>700</ele>
        <time>2020-06-08T07:57:33Z</time>
      </trkpt>
      <trkpt lat="45.17354" lon="4.49369">
        <ele>710</ele>
        <time>2020-06-08T07:57:39Z</time>
      </trkpt>
      <trkpt lat="45.17345" lon="4.49361">
        <ele>709</ele>
        <time>2020-06-08T07:57:42Z</time>
      </trkpt>
      <trkpt lat="45.17317" lon="4.49355">
        <ele>701</ele>
        <time>2020-06-08T07:57:49Z</time>
      </trkpt>
      <trkpt lat="45.17267" lon="4.49248">
        <ele>704</ele>
        <time>2020-06-08T07:58:10Z</time>
      </trkpt>
      <trkpt lat="45.17252" lon="4.49203">
        <ele>705</ele>
        <time>2020-06-08T07:58:18Z</time>
      </trkpt>
      <trkpt lat="45.17207" lon="4.49108">
        <ele>712</ele>
        <time>2020-06-08T07:58:37Z</time>
      </trkpt>
      <trkpt lat="45.17137" lon="4.49002">
        <ele>714</ele>
        <time>2020-06-08T07:59:01Z</time>
      </trkpt>
      <trkpt lat="45.17124" lon="4.48975">
        <ele>716</ele>
        <time>2020-06-08T07:59:06Z</time>
      </trkpt>
      <trkpt lat="45.17104" lon="4.48945">
        <ele>715</ele>
        <time>2020-06-08T07:59:13Z</time>
      </trkpt>
      <trkpt lat="45.17093" lon="4.48916">
        <ele>718</ele>
        <time>2020-06-08T07:59:18Z</time>
      </trkpt>
      <trkpt lat="45.17065" lon="4.48868">
        <ele>720</ele>
        <time>2020-06-08T07:59:28Z</time>
      </trkpt>
      <trkpt lat="45.17052" lon="4.48833">
        <ele>723</ele>
        <time>2020-06-08T07:59:35Z</time>
      </trkpt>
      <trkpt lat="45.17034" lon="4.48812">
        <ele>723</ele>
        <time>2020-06-08T07:59:40Z</time>
      </trkpt>
      <trkpt lat="45.17006" lon="4.48771">
        <ele>722</ele>
        <time>2020-06-08T07:59:50Z</time>
      </trkpt>
      <trkpt lat="45.16984" lon="4.48726">
        <ele>726</ele>
        <time>2020-06-08T07:59:59Z</time>
      </trkpt>
      <trkpt lat="45.16976" lon="4.48699">
        <ele>729</ele>
        <time>2020-06-08T08:00:04Z</time>
      </trkpt>
      <trkpt lat="45.1696" lon="4.48685">
        <ele>727</ele>
        <time>2020-06-08T08:00:08Z</time>
      </trkpt>
      <trkpt lat="45.1694" lon="4.48662">
        <ele>726</ele>
        <time>2020-06-08T08:00:14Z</time>
      </trkpt>
      <trkpt lat="45.16935" lon="4.48641">
        <ele>730</ele>
        <time>2020-06-08T08:00:18Z</time>
      </trkpt>
      <trkpt lat="45.16935" lon="4.48621">
        <ele>734</ele>
        <time>2020-06-08T08:00:21Z</time>
      </trkpt>
      <trkpt lat="45.16939" lon="4.48605">
        <ele>739</ele>
        <time>2020-06-08T08:00:24Z</time>
      </trkpt>
      <trkpt lat="45.16941" lon="4.48581">
        <ele>745</ele>
        <time>2020-06-08T08:00:28Z</time>
      </trkpt>
      <trkpt lat="45.16932" lon="4.4857">
        <ele>745</ele>
        <time>2020-06-08T08:00:31Z</time>
      </trkpt>
      <trkpt lat="45.16905" lon="4.48597">
        <ele>734</ele>
        <time>2020-06-08T08:00:38Z</time>
      </trkpt>
      <trkpt lat="45.16868" lon="4.48622">
        <ele>725</ele>
        <time>2020-06-08T08:00:48Z</time>
      </trkpt>
      <trkpt lat="45.16854" lon="4.48617">
        <ele>725</ele>
        <time>2020-06-08T08:00:51Z</time>
      </trkpt>
      <trkpt lat="45.16784" lon="4.48536">
        <ele>735</ele>
        <time>2020-06-08T08:01:12Z</time>
      </trkpt>
      <trkpt lat="45.16764" lon="4.48483">
        <ele>741</ele>
        <time>2020-06-08T08:01:22Z</time>
      </trkpt>
      <trkpt lat="45.16751" lon="4.48437">
        <ele>746</ele>
        <time>2020-06-08T08:01:30Z</time>
      </trkpt>
      <trkpt lat="45.16708" lon="4.48357">
        <ele>744</ele>
        <time>2020-06-08T08:01:47Z</time>
      </trkpt>
      <trkpt lat="45.16707" lon="4.4833">
        <ele>748</ele>
        <time>2020-06-08T08:01:51Z</time>
      </trkpt>
      <trkpt lat="45.16702" lon="4.48307">
        <ele>750</ele>
        <time>2020-06-08T08:01:55Z</time>
      </trkpt>
      <trkpt lat="45.16677" lon="4.48282">
        <ele>747</ele>
        <time>2020-06-08T08:02:02Z</time>
      </trkpt>
      <trkpt lat="45.16652" lon="4.48235">
        <ele>752</ele>
        <time>2020-06-08T08:02:12Z</time>
      </trkpt>
      <trkpt lat="45.166" lon="4.48154">
        <ele>753</ele>
        <time>2020-06-08T08:02:30Z</time>
      </trkpt>
      <trkpt lat="45.16578" lon="4.48104">
        <ele>752</ele>
        <time>2020-06-08T08:02:40Z</time>
      </trkpt>
      <trkpt lat="45.1657" lon="4.48071">
        <ele>753</ele>
        <time>2020-06-08T08:02:46Z</time>
      </trkpt>
      <trkpt lat="45.16584" lon="4.48056">
        <ele>758</ele>
        <time>2020-06-08T08:02:50Z</time>
      </trkpt>
      <trkpt lat="45.16606" lon="4.48046">
        <ele>767</ele>
        <time>2020-06-08T08:02:55Z</time>
      </trkpt>
      <trkpt lat="45.16612" lon="4.48034">
        <ele>770</ele>
        <time>2020-06-08T08:02:58Z</time>
      </trkpt>
      <trkpt lat="45.16605" lon="4.48022">
        <ele>768</ele>
        <time>2020-06-08T08:03:00Z</time>
      </trkpt>
      <trkpt lat="45.16582" lon="4.48014">
        <ele>761</ele>
        <time>2020-06-08T08:03:06Z</time>
      </trkpt>
      <trkpt lat="45.16564" lon="4.47997">
        <ele>757</ele>
        <time>2020-06-08T08:03:11Z</time>
      </trkpt>
      <trkpt lat="45.16552" lon="4.47968">
        <ele>756</ele>
        <time>2020-06-08T08:03:16Z</time>
      </trkpt>
      <trkpt lat="45.16549" lon="4.47939">
        <ele>757</ele>
        <time>2020-06-08T08:03:21Z</time>
      </trkpt>
      <trkpt lat="45.16554" lon="4.47905">
        <ele>763</ele>
        <time>2020-06-08T08:03:27Z</time>
      </trkpt>
      <trkpt lat="45.16539" lon="4.47839">
        <ele>770</ele>
        <time>2020-06-08T08:03:38Z</time>
      </trkpt>
      <trkpt lat="45.16497" lon="4.47777">
        <ele>771</ele>
        <time>2020-06-08T08:03:52Z</time>
      </trkpt>
      <trkpt lat="45.16464" lon="4.47754">
        <ele>769</ele>
        <time>2020-06-08T08:04:01Z</time>
      </trkpt>
      <trkpt lat="45.1641" lon="4.47689">
        <ele>770</ele>
        <time>2020-06-08T08:04:18Z</time>
      </trkpt>
      <trkpt lat="45.16398" lon="4.4764">
        <ele>779</ele>
        <time>2020-06-08T08:04:26Z</time>
      </trkpt>
      <trkpt lat="45.16386" lon="4.4764">
        <ele>777</ele>
        <time>2020-06-08T08:04:29Z</time>
      </trkpt>
      <trkpt lat="45.16364" lon="4.47654">
        <ele>770</ele>
        <time>2020-06-08T08:04:34Z</time>
      </trkpt>
      <trkpt lat="45.16342" lon="4.47651">
        <ele>767</ele>
        <time>2020-06-08T08:04:40Z</time>
      </trkpt>
      <trkpt lat="45.16329" lon="4.4763">
        <ele>770</ele>
        <time>2020-06-08T08:04:44Z</time>
      </trkpt>
      <trkpt lat="45.16273" lon="4.47507">
        <ele>781</ele>
        <time>2020-06-08T08:05:08Z</time>
      </trkpt>
      <trkpt lat="45.16251" lon="4.4748">
        <ele>780</ele>
        <time>2020-06-08T08:05:15Z</time>
      </trkpt>
      <trkpt lat="45.16175" lon="4.47416">
        <ele>779</ele>
        <time>2020-06-08T08:05:36Z</time>
      </trkpt>
      <trkpt lat="45.16059" lon="4.473">
        <ele>790</ele>
        <time>2020-06-08T08:06:09Z</time>
      </trkpt>
      <trkpt lat="45.15979" lon="4.47229">
        <ele>789</ele>
        <time>2020-06-08T08:06:31Z</time>
      </trkpt>
      <trkpt lat="45.15966" lon="4.47201">
        <ele>791</ele>
        <time>2020-06-08T08:06:36Z</time>
      </trkpt>
      <trkpt lat="45.15961" lon="4.47181">
        <ele>792</ele>
        <time>2020-06-08T08:06:40Z</time>
      </trkpt>
      <trkpt lat="45.15975" lon="4.47069">
        <ele>796</ele>
        <time>2020-06-08T08:06:59Z</time>
      </trkpt>
      <trkpt lat="45.15984" lon="4.47027">
        <ele>797</ele>
        <time>2020-06-08T08:07:06Z</time>
      </trkpt>
      <trkpt lat="45.15977" lon="4.47009">
        <ele>797</ele>
        <time>2020-06-08T08:07:09Z</time>
      </trkpt>
      <trkpt lat="45.15958" lon="4.47011">
        <ele>798</ele>
        <time>2020-06-08T08:07:14Z</time>
      </trkpt>
      <trkpt lat="45.15938" lon="4.47031">
        <ele>796</ele>
        <time>2020-06-08T08:07:19Z</time>
      </trkpt>
      <trkpt lat="45.15904" lon="4.47032">
        <ele>795</ele>
        <time>2020-06-08T08:07:27Z</time>
      </trkpt>
      <trkpt lat="45.15875" lon="4.47027">
        <ele>796</ele>
        <time>2020-06-08T08:07:34Z</time>
      </trkpt>
      <trkpt lat="45.15813" lon="4.47005">
        <ele>798</ele>
        <time>2020-06-08T08:07:49Z</time>
      </trkpt>
      <trkpt lat="45.15796" lon="4.46989">
        <ele>801</ele>
        <time>2020-06-08T08:07:54Z</time>
      </trkpt>
      <trkpt lat="45.15776" lon="4.46961">
        <ele>806</ele>
        <time>2020-06-08T08:08:01Z</time>
      </trkpt>
      <trkpt lat="45.15752" lon="4.46944">
        <ele>807</ele>
        <time>2020-06-08T08:08:07Z</time>
      </trkpt>
      <trkpt lat="45.15717" lon="4.46907">
        <ele>811</ele>
        <time>2020-06-08T08:08:17Z</time>
      </trkpt>
      <trkpt lat="45.15674" lon="4.46888">
        <ele>809</ele>
        <time>2020-06-08T08:08:27Z</time>
      </trkpt>
      <trkpt lat="45.15633" lon="4.46861">
        <ele>813</ele>
        <time>2020-06-08T08:08:38Z</time>
      </trkpt>
      <trkpt lat="45.15561" lon="4.46789">
        <ele>818</ele>
        <time>2020-06-08T08:08:59Z</time>
      </trkpt>
      <trkpt lat="45.15509" lon="4.46717">
        <ele>819</ele>
        <time>2020-06-08T08:09:16Z</time>
      </trkpt>
      <trkpt lat="45.15488" lon="4.46672">
        <ele>824</ele>
        <time>2020-06-08T08:09:24Z</time>
      </trkpt>
      <trkpt lat="45.15426" lon="4.46591">
        <ele>826</ele>
        <time>2020-06-08T08:09:44Z</time>
      </trkpt>
      <trkpt lat="45.154" lon="4.46494">
        <ele>837</ele>
        <time>2020-06-08T08:10:01Z</time>
      </trkpt>
      <trkpt lat="45.1539" lon="4.46448">
        <ele>841</ele>
        <time>2020-06-08T08:10:09Z</time>
      </trkpt>
      <trkpt lat="45.15372" lon="4.464">
        <ele>841</ele>
        <time>2020-06-08T08:10:18Z</time>
      </trkpt>
      <trkpt lat="45.15345" lon="4.46379">
        <ele>835</ele>
        <time>2020-06-08T08:10:25Z</time>
      </trkpt>
      <trkpt lat="45.1533" lon="4.46352">
        <ele>835</ele>
        <time>2020-06-08T08:10:31Z</time>
      </trkpt>
      <trkpt lat="45.15314" lon="4.46316">
        <ele>841</ele>
        <time>2020-06-08T08:10:38Z</time>
      </trkpt>
      <trkpt lat="45.15283" lon="4.4627">
        <ele>844</ele>
        <time>2020-06-08T08:10:48Z</time>
      </trkpt>
      <trkpt lat="45.15223" lon="4.462">
        <ele>841</ele>
        <time>2020-06-08T08:11:07Z</time>
      </trkpt>
      <trkpt lat="45.15218" lon="4.46171">
        <ele>844</ele>
        <time>2020-06-08T08:11:12Z</time>
      </trkpt>
      <trkpt lat="45.15226" lon="4.46134">
        <ele>847</ele>
        <time>2020-06-08T08:11:18Z</time>
      </trkpt>
      <trkpt lat="45.15235" lon="4.46106">
        <ele>850</ele>
        <time>2020-06-08T08:11:23Z</time>
      </trkpt>
      <trkpt lat="45.15229" lon="4.46092">
        <ele>849</ele>
        <time>2020-06-08T08:11:26Z</time>
      </trkpt>
      <trkpt lat="45.15214" lon="4.46096">
        <ele>846</ele>
        <time>2020-06-08T08:11:29Z</time>
      </trkpt>
      <trkpt lat="45.15196" lon="4.46089">
        <ele>842</ele>
        <time>2020-06-08T08:11:34Z</time>
      </trkpt>
      <trkpt lat="45.15179" lon="4.46073">
        <ele>841</ele>
        <time>2020-06-08T08:11:38Z</time>
      </trkpt>
      <trkpt lat="45.15159" lon="4.46017">
        <ele>848</ele>
        <time>2020-06-08T08:11:49Z</time>
      </trkpt>
      <trkpt lat="45.15129" lon="4.4596">
        <ele>858</ele>
        <time>2020-06-08T08:12:00Z</time>
      </trkpt>
      <trkpt lat="45.151" lon="4.45914">
        <ele>859</ele>
        <time>2020-06-08T08:12:11Z</time>
      </trkpt>
      <trkpt lat="45.15075" lon="4.45847">
        <ele>865</ele>
        <time>2020-06-08T08:12:23Z</time>
      </trkpt>
      <trkpt lat="45.15054" lon="4.45833">
        <ele>865</ele>
        <time>2020-06-08T08:12:28Z</time>
      </trkpt>
      <trkpt lat="45.15033" lon="4.45803">
        <ele>867</ele>
        <time>2020-06-08T08:12:35Z</time>
      </trkpt>
      <trkpt lat="45.15005" lon="4.4577">
        <ele>863</ele>
        <time>2020-06-08T08:12:44Z</time>
      </trkpt>
      <trkpt lat="45.14986" lon="4.45742">
        <ele>864</ele>
        <time>2020-06-08T08:12:50Z</time>
      </trkpt>
      <trkpt lat="45.14974" lon="4.45704">
        <ele>871</ele>
        <time>2020-06-08T08:12:57Z</time>
      </trkpt>
      <trkpt lat="45.14958" lon="4.45667">
        <ele>874</ele>
        <time>2020-06-08T08:13:04Z</time>
      </trkpt>
      <trkpt lat="45.1493" lon="4.45653">
        <ele>874</ele>
        <time>2020-06-08T08:13:11Z</time>
      </trkpt>
      <trkpt lat="45.14906" lon="4.45634">
        <ele>877</ele>
        <time>2020-06-08T08:13:18Z</time>
      </trkpt>
      <trkpt lat="45.14893" lon="4.45612">
        <ele>882</ele>
        <time>2020-06-08T08:13:22Z</time>
      </trkpt>
      <trkpt lat="45.14879" lon="4.45616">
        <ele>884</ele>
        <time>2020-06-08T08:13:26Z</time>
      </trkpt>
      <trkpt lat="45.14878" lon="4.45628">
        <ele>884</ele>
        <time>2020-06-08T08:13:28Z</time>
      </trkpt>
      <trkpt lat="45.14901" lon="4.45685">
        <ele>875</ele>
        <time>2020-06-08T08:13:39Z</time>
      </trkpt>
      <trkpt lat="45.14926" lon="4.45757">
        <ele>873</ele>
        <time>2020-06-08T08:13:52Z</time>
      </trkpt>
      <trkpt lat="45.14936" lon="4.45819">
        <ele>879</ele>
        <time>2020-06-08T08:14:02Z</time>
      </trkpt>
      <trkpt lat="45.14958" lon="4.45854">
        <ele>879</ele>
        <time>2020-06-08T08:14:10Z</time>
      </trkpt>
      <trkpt lat="45.14974" lon="4.4589">
        <ele>883</ele>
        <time>2020-06-08T08:14:17Z</time>
      </trkpt>
      <trkpt lat="45.1499" lon="4.45994">
        <ele>894</ele>
        <time>2020-06-08T08:14:35Z</time>
      </trkpt>
      <trkpt lat="45.15002" lon="4.46044">
        <ele>894</ele>
        <time>2020-06-08T08:14:43Z</time>
      </trkpt>
      <trkpt lat="45.15008" lon="4.46088">
        <ele>895</ele>
        <time>2020-06-08T08:14:51Z</time>
      </trkpt>
      <trkpt lat="45.15002" lon="4.46119">
        <ele>898</ele>
        <time>2020-06-08T08:14:56Z</time>
      </trkpt>
      <trkpt lat="45.14988" lon="4.4617">
        <ele>905</ele>
        <time>2020-06-08T08:15:05Z</time>
      </trkpt>
      <trkpt lat="45.14983" lon="4.4621">
        <ele>909</ele>
        <time>2020-06-08T08:15:12Z</time>
      </trkpt>
      <trkpt lat="45.14983" lon="4.46265">
        <ele>910</ele>
        <time>2020-06-08T08:15:21Z</time>
      </trkpt>
      <trkpt lat="45.14977" lon="4.46302">
        <ele>909</ele>
        <time>2020-06-08T08:15:27Z</time>
      </trkpt>
      <trkpt lat="45.14975" lon="4.46254">
        <ele>914</ele>
        <time>2020-06-08T08:15:35Z</time>
      </trkpt>
      <trkpt lat="45.14965" lon="4.46209">
        <ele>917</ele>
        <time>2020-06-08T08:15:43Z</time>
      </trkpt>
      <trkpt lat="45.14961" lon="4.46143">
        <ele>916</ele>
        <time>2020-06-08T08:15:54Z</time>
      </trkpt>
      <trkpt lat="45.1494" lon="4.46086">
        <ele>923</ele>
        <time>2020-06-08T08:16:04Z</time>
      </trkpt>
      <trkpt lat="45.14911" lon="4.46058">
        <ele>933</ele>
        <time>2020-06-08T08:16:12Z</time>
      </trkpt>
      <trkpt lat="45.149" lon="4.46006">
        <ele>934</ele>
        <time>2020-06-08T08:16:21Z</time>
      </trkpt>
      <trkpt lat="45.14889" lon="4.45978">
        <ele>933</ele>
        <time>2020-06-08T08:16:27Z</time>
      </trkpt>
      <trkpt lat="45.14809" lon="4.45875">
        <ele>943</ele>
        <time>2020-06-08T08:16:52Z</time>
      </trkpt>
      <trkpt lat="45.14761" lon="4.45843">
        <ele>955</ele>
        <time>2020-06-08T08:17:04Z</time>
      </trkpt>
      <trkpt lat="45.14726" lon="4.45787">
        <ele>957</ele>
        <time>2020-06-08T08:17:16Z</time>
      </trkpt>
      <trkpt lat="45.14658" lon="4.4575">
        <ele>967</ele>
        <time>2020-06-08T08:17:33Z</time>
      </trkpt>
      <trkpt lat="45.14639" lon="4.45724">
        <ele>967</ele>
        <time>2020-06-08T08:17:40Z</time>
      </trkpt>
      <trkpt lat="45.14612" lon="4.45708">
        <ele>972</ele>
        <time>2020-06-08T08:17:46Z</time>
      </trkpt>
      <trkpt lat="45.14595" lon="4.45685">
        <ele>970</ele>
        <time>2020-06-08T08:17:52Z</time>
      </trkpt>
      <trkpt lat="45.14571" lon="4.45661">
        <ele>969</ele>
        <time>2020-06-08T08:17:59Z</time>
      </trkpt>
      <trkpt lat="45.14545" lon="4.45657">
        <ele>972</ele>
        <time>2020-06-08T08:18:05Z</time>
      </trkpt>
      <trkpt lat="45.14515" lon="4.45663">
        <ele>979</ele>
        <time>2020-06-08T08:18:12Z</time>
      </trkpt>
      <trkpt lat="45.14485" lon="4.45663">
        <ele>985</ele>
        <time>2020-06-08T08:18:19Z</time>
      </trkpt>
      <trkpt lat="45.14452" lon="4.45647">
        <ele>990</ele>
        <time>2020-06-08T08:18:27Z</time>
      </trkpt>
      <trkpt lat="45.14408" lon="4.4561">
        <ele>996</ele>
        <time>2020-06-08T08:18:39Z</time>
      </trkpt>
      <trkpt lat="45.14391" lon="4.45569">
        <ele>999</ele>
        <time>2020-06-08T08:18:47Z</time>
      </trkpt>
      <trkpt lat="45.14384" lon="4.45505">
        <ele>999</ele>
        <time>2020-06-08T08:18:58Z</time>
      </trkpt>
      <trkpt lat="45.14368" lon="4.45437">
        <ele>1007</ele>
        <time>2020-06-08T08:19:09Z</time>
      </trkpt>
      <trkpt lat="45.14373" lon="4.45378">
        <ele>1006</ele>
        <time>2020-06-08T08:19:19Z</time>
      </trkpt>
      <trkpt lat="45.14368" lon="4.45328">
        <ele>1008</ele>
        <time>2020-06-08T08:19:28Z</time>
      </trkpt>
      <trkpt lat="45.14349" lon="4.45304">
        <ele>1012</ele>
        <time>2020-06-08T08:19:33Z</time>
      </trkpt>
      <trkpt lat="45.14314" lon="4.45279">
        <ele>1020</ele>
        <time>2020-06-08T08:19:43Z</time>
      </trkpt>
      <trkpt lat="45.14267" lon="4.45259">
        <ele>1032</ele>
        <time>2020-06-08T08:19:54Z</time>
      </trkpt>
      <trkpt lat="45.14239" lon="4.45228">
        <ele>1037</ele>
        <time>2020-06-08T08:20:02Z</time>
      </trkpt>
      <trkpt lat="45.14201" lon="4.45196">
        <ele>1047</ele>
        <time>2020-06-08T08:20:13Z</time>
      </trkpt>
      <trkpt lat="45.14204" lon="4.45157">
        <ele>1045</ele>
        <time>2020-06-08T08:20:19Z</time>
      </trkpt>
      <trkpt lat="45.14257" lon="4.4504">
        <ele>1047</ele>
        <time>2020-06-08T08:20:42Z</time>
      </trkpt>
      <trkpt lat="45.14264" lon="4.45003">
        <ele>1051</ele>
        <time>2020-06-08T08:20:48Z</time>
      </trkpt>
      <trkpt lat="45.14263" lon="4.44978">
        <ele>1054</ele>
        <time>2020-06-08T08:20:52Z</time>
      </trkpt>
      <trkpt lat="45.14238" lon="4.44823">
        <ele>1068</ele>
        <time>2020-06-08T08:21:19Z</time>
      </trkpt>
      <trkpt lat="45.14178" lon="4.44686">
        <ele>1073</ele>
        <time>2020-06-08T08:21:45Z</time>
      </trkpt>
      <trkpt lat="45.14168" lon="4.44638">
        <ele>1073</ele>
        <time>2020-06-08T08:21:53Z</time>
      </trkpt>
      <trkpt lat="45.14167" lon="4.44589">
        <ele>1075</ele>
        <time>2020-06-08T08:22:02Z</time>
      </trkpt>
      <trkpt lat="45.14202" lon="4.44565">
        <ele>1073</ele>
        <time>2020-06-08T08:22:11Z</time>
      </trkpt>
      <trkpt lat="45.14225" lon="4.44507">
        <ele>1083</ele>
        <time>2020-06-08T08:22:22Z</time>
      </trkpt>
      <trkpt lat="45.14221" lon="4.44478">
        <ele>1087</ele>
        <time>2020-06-08T08:22:26Z</time>
      </trkpt>
      <trkpt lat="45.14202" lon="4.44432">
        <ele>1091</ele>
        <time>2020-06-08T08:22:35Z</time>
      </trkpt>
      <trkpt lat="45.14193" lon="4.44397">
        <ele>1093</ele>
        <time>2020-06-08T08:22:41Z</time>
      </trkpt>
      <trkpt lat="45.1421" lon="4.44348">
        <ele>1097</ele>
        <time>2020-06-08T08:22:50Z</time>
      </trkpt>
      <trkpt lat="45.14253" lon="4.44362">
        <ele>1102</ele>
        <time>2020-06-08T08:23:01Z</time>
      </trkpt>
      <trkpt lat="45.14265" lon="4.44358">
        <ele>1105</ele>
        <time>2020-06-08T08:23:04Z</time>
      </trkpt>
      <trkpt lat="45.14281" lon="4.44328">
        <ele>1111</ele>
        <time>2020-06-08T08:23:10Z</time>
      </trkpt>
      <trkpt lat="45.14302" lon="4.4427">
        <ele>1114</ele>
        <time>2020-06-08T08:23:21Z</time>
      </trkpt>
      <trkpt lat="45.14335" lon="4.44091">
        <ele>1111</ele>
        <time>2020-06-08T08:23:51Z</time>
      </trkpt>
      <trkpt lat="45.14354" lon="4.43944">
        <ele>1106</ele>
        <time>2020-06-08T08:24:16Z</time>
      </trkpt>
      <trkpt lat="45.1435" lon="4.43894">
        <ele>1106</ele>
        <time>2020-06-08T08:24:24Z</time>
      </trkpt>
      <trkpt lat="45.14337" lon="4.4385">
        <ele>1106</ele>
        <time>2020-06-08T08:24:32Z</time>
      </trkpt>
      <trkpt lat="45.14335" lon="4.43834">
        <ele>1107</ele>
        <time>2020-06-08T08:24:34Z</time>
      </trkpt>
      <trkpt lat="45.14287" lon="4.43675">
        <ele>1113</ele>
        <time>2020-06-08T08:25:03Z</time>
      </trkpt>
      <trkpt lat="45.14262" lon="4.43608">
        <ele>1115</ele>
        <time>2020-06-08T08:25:15Z</time>
      </trkpt>
      <trkpt lat="45.14244" lon="4.43601">
        <ele>1115</ele>
        <time>2020-06-08T08:25:20Z</time>
      </trkpt>
      <trkpt lat="45.14212" lon="4.43526">
        <ele>1118</ele>
        <time>2020-06-08T08:25:34Z</time>
      </trkpt>
      <trkpt lat="45.14199" lon="4.43536">
        <ele>1119</ele>
        <time>2020-06-08T08:25:38Z</time>
      </trkpt>
      <trkpt lat="45.14174" lon="4.4352">
        <ele>1121</ele>
        <time>2020-06-08T08:25:44Z</time>
      </trkpt>
      <trkpt lat="45.14103" lon="4.43461">
        <ele>1129</ele>
        <time>2020-06-08T08:26:03Z</time>
      </trkpt>
      <trkpt lat="45.14036" lon="4.43397">
        <ele>1135</ele>
        <time>2020-06-08T08:26:22Z</time>
      </trkpt>
      <trkpt lat="45.1392" lon="4.4333">
        <ele>1137</ele>
        <time>2020-06-08T08:26:51Z</time>
      </trkpt>
      <trkpt lat="45.1385" lon="4.43294">
        <ele>1139</ele>
        <time>2020-06-08T08:27:09Z</time>
      </trkpt>
      <trkpt lat="45.13802" lon="4.43278">
        <ele>1138</ele>
        <time>2020-06-08T08:27:20Z</time>
      </trkpt>
      <trkpt lat="45.13708" lon="4.43264">
        <ele>1138</ele>
        <time>2020-06-08T08:27:42Z</time>
      </trkpt>
      <trkpt lat="45.13646" lon="4.4325">
        <ele>1141</ele>
        <time>2020-06-08T08:27:57Z</time>
      </trkpt>
      <trkpt lat="45.1359" lon="4.43248">
        <ele>1145</ele>
        <time>2020-06-08T08:28:10Z</time>
      </trkpt>
      <trkpt lat="45.1349" lon="4.43162">
        <ele>1146</ele>
        <time>2020-06-08T08:28:37Z</time>
      </trkpt>
      <trkpt lat="45.13429" lon="4.43118">
        <ele>1143</ele>
        <time>2020-06-08T08:28:53Z</time>
      </trkpt>
      <trkpt lat="45.13409" lon="4.43107">
        <ele>1142</ele>
        <time>2020-06-08T08:28:58Z</time>
      </trkpt>
      <trkpt lat="45.13397" lon="4.43093">
        <ele>1141</ele>
        <time>2020-06-08T08:29:02Z</time>
      </trkpt>
      <trkpt lat="45.13365" lon="4.42959">
        <ele>1134</ele>
        <time>2020-06-08T08:29:25Z</time>
      </trkpt>
      <trkpt lat="45.13353" lon="4.42882">
        <ele>1130</ele>
        <time>2020-06-08T08:29:38Z</time>
      </trkpt>
      <trkpt lat="45.13399" lon="4.42815">
        <ele>1133</ele>
        <time>2020-06-08T08:29:54Z</time>
      </trkpt>
      <trkpt lat="45.13421" lon="4.4277">
        <ele>1136</ele>
        <time>2020-06-08T08:30:03Z</time>
      </trkpt>
      <trkpt lat="45.13467" lon="4.42553">
        <ele>1142</ele>
        <time>2020-06-08T08:30:40Z</time>
      </trkpt>
      <trkpt lat="45.13356" lon="4.424">
        <ele>1146</ele>
        <time>2020-06-08T08:31:16Z</time>
      </trkpt>
      <trkpt lat="45.13313" lon="4.42335">
        <ele>1148</ele>
        <time>2020-06-08T08:31:31Z</time>
      </trkpt>
      <trkpt lat="45.13298" lon="4.42297">
        <ele>1148</ele>
        <time>2020-06-08T08:31:38Z</time>
      </trkpt>
      <trkpt lat="45.13286" lon="4.42221">
        <ele>1150</ele>
        <time>2020-06-08T08:31:51Z</time>
      </trkpt>
      <trkpt lat="45.1328" lon="4.42128">
        <ele>1156</ele>
        <time>2020-06-08T08:32:06Z</time>
      </trkpt>
      <trkpt lat="45.13285" lon="4.42065">
        <ele>1159</ele>
        <time>2020-06-08T08:32:17Z</time>
      </trkpt>
      <trkpt lat="45.13283" lon="4.41937">
        <ele>1164</ele>
        <time>2020-06-08T08:32:38Z</time>
      </trkpt>
      <trkpt lat="45.13306" lon="4.41776">
        <ele>1173</ele>
        <time>2020-06-08T08:33:05Z</time>
      </trkpt>
      <trkpt lat="45.13347" lon="4.41614">
        <ele>1179</ele>
        <time>2020-06-08T08:33:33Z</time>
      </trkpt>
      <trkpt lat="45.13396" lon="4.41386">
        <ele>1167</ele>
        <time>2020-06-08T08:34:13Z</time>
      </trkpt>
      <trkpt lat="45.13389" lon="4.41325">
        <ele>1164</ele>
        <time>2020-06-08T08:34:23Z</time>
      </trkpt>
      <trkpt lat="45.1337" lon="4.4129">
        <ele>1165</ele>
        <time>2020-06-08T08:34:30Z</time>
      </trkpt>
      <trkpt lat="45.13318" lon="4.41268">
        <ele>1165</ele>
        <time>2020-06-08T08:34:43Z</time>
      </trkpt>
      <trkpt lat="45.13281" lon="4.4124">
        <ele>1170</ele>
        <time>2020-06-08T08:34:52Z</time>
      </trkpt>
      <trkpt lat="45.13258" lon="4.41228">
        <ele>1171</ele>
        <time>2020-06-08T08:34:58Z</time>
      </trkpt>
      <trkpt lat="45.1322" lon="4.4122">
        <ele>1171</ele>
        <time>2020-06-08T08:35:07Z</time>
      </trkpt>
      <trkpt lat="45.13179" lon="4.41206">
        <ele>1173</ele>
        <time>2020-06-08T08:35:17Z</time>
      </trkpt>
      <trkpt lat="45.13101" lon="4.412">
        <ele>1175</ele>
        <time>2020-06-08T08:35:35Z</time>
      </trkpt>
      <trkpt lat="45.13028" lon="4.41204">
        <ele>1175</ele>
        <time>2020-06-08T08:35:52Z</time>
      </trkpt>
      <trkpt lat="45.12982" lon="4.41203">
        <ele>1174</ele>
        <time>2020-06-08T08:36:03Z</time>
      </trkpt>
      <trkpt lat="45.12957" lon="4.41194">
        <ele>1172</ele>
        <time>2020-06-08T08:36:09Z</time>
      </trkpt>
      <trkpt lat="45.12932" lon="4.4117">
        <ele>1171</ele>
        <time>2020-06-08T08:36:16Z</time>
      </trkpt>
      <trkpt lat="45.129" lon="4.41101">
        <ele>1167</ele>
        <time>2020-06-08T08:36:30Z</time>
      </trkpt>
      <trkpt lat="45.1288" lon="4.41021">
        <ele>1164</ele>
        <time>2020-06-08T08:36:44Z</time>
      </trkpt>
      <trkpt lat="45.12853" lon="4.40874">
        <ele>1154</ele>
        <time>2020-06-08T08:37:09Z</time>
      </trkpt>
      <trkpt lat="45.12867" lon="4.40786">
        <ele>1151</ele>
        <time>2020-06-08T08:37:24Z</time>
      </trkpt>
      <trkpt lat="45.12882" lon="4.4074">
        <ele>1150</ele>
        <time>2020-06-08T08:37:32Z</time>
      </trkpt>
      <trkpt lat="45.12877" lon="4.40708">
        <ele>1151</ele>
        <time>2020-06-08T08:37:37Z</time>
      </trkpt>
      <trkpt lat="45.12839" lon="4.40697">
        <ele>1147</ele>
        <time>2020-06-08T08:37:46Z</time>
      </trkpt>
      <trkpt lat="45.12786" lon="4.40693">
        <ele>1143</ele>
        <time>2020-06-08T08:37:59Z</time>
      </trkpt>
      <trkpt lat="45.12738" lon="4.40686">
        <ele>1140</ele>
        <time>2020-06-08T08:38:10Z</time>
      </trkpt>
      <trkpt lat="45.12692" lon="4.40675">
        <ele>1139</ele>
        <time>2020-06-08T08:38:21Z</time>
      </trkpt>
      <trkpt lat="45.12642" lon="4.40652">
        <ele>1137</ele>
        <time>2020-06-08T08:38:33Z</time>
      </trkpt>
      <trkpt lat="45.12603" lon="4.4062">
        <ele>1137</ele>
        <time>2020-06-08T08:38:44Z</time>
      </trkpt>
      <trkpt lat="45.12542" lon="4.4055">
        <ele>1134</ele>
        <time>2020-06-08T08:39:02Z</time>
      </trkpt>
      <trkpt lat="45.12465" lon="4.40496">
        <ele>1126</ele>
        <time>2020-06-08T08:39:22Z</time>
      </trkpt>
      <trkpt lat="45.12387" lon="4.40433">
        <ele>1121</ele>
        <time>2020-06-08T08:39:43Z</time>
      </trkpt>
      <trkpt lat="45.12315" lon="4.40383">
        <ele>1119</ele>
        <time>2020-06-08T08:40:02Z</time>
      </trkpt>
      <trkpt lat="45.12151" lon="4.40258">
        <ele>1115</ele>
        <time>2020-06-08T08:40:45Z</time>
      </trkpt>
      <trkpt lat="45.12038" lon="4.40182">
        <ele>1118</ele>
        <time>2020-06-08T08:41:15Z</time>
      </trkpt>
      <trkpt lat="45.11937" lon="4.40128">
        <ele>1123</ele>
        <time>2020-06-08T08:41:40Z</time>
      </trkpt>
      <trkpt lat="45.11888" lon="4.40092">
        <ele>1125</ele>
        <time>2020-06-08T08:41:53Z</time>
      </trkpt>
      <trkpt lat="45.11806" lon="4.4005">
        <ele>1127</ele>
        <time>2020-06-08T08:42:13Z</time>
      </trkpt>
      <trkpt lat="45.1177" lon="4.40035">
        <ele>1129</ele>
        <time>2020-06-08T08:42:22Z</time>
      </trkpt>
      <trkpt lat="45.11739" lon="4.40026">
        <ele>1131</ele>
        <time>2020-06-08T08:42:29Z</time>
      </trkpt>
      <trkpt lat="45.1171" lon="4.40037">
        <ele>1131</ele>
        <time>2020-06-08T08:42:36Z</time>
      </trkpt>
      <trkpt lat="45.11624" lon="4.4003">
        <ele>1136</ele>
        <time>2020-06-08T08:42:56Z</time>
      </trkpt>
      <trkpt lat="45.11532" lon="4.40034">
        <ele>1141</ele>
        <time>2020-06-08T08:43:18Z</time>
      </trkpt>
      <trkpt lat="45.11487" lon="4.40033">
        <ele>1142</ele>
        <time>2020-06-08T08:43:28Z</time>
      </trkpt>
      <trkpt lat="45.11446" lon="4.40005">
        <ele>1138</ele>
        <time>2020-06-08T08:43:39Z</time>
      </trkpt>
      <trkpt lat="45.11431" lon="4.40001">
        <ele>1137</ele>
        <time>2020-06-08T08:43:42Z</time>
      </trkpt>
      <trkpt lat="45.1141" lon="4.3999">
        <ele>1136</ele>
        <time>2020-06-08T08:43:48Z</time>
      </trkpt>
      <trkpt lat="45.11375" lon="4.39979">
        <ele>1134</ele>
        <time>2020-06-08T08:43:56Z</time>
      </trkpt>
      <trkpt lat="45.11335" lon="4.39983">
        <ele>1130</ele>
        <time>2020-06-08T08:44:05Z</time>
      </trkpt>
      <trkpt lat="45.11305" lon="4.4">
        <ele>1131</ele>
        <time>2020-06-08T08:44:13Z</time>
      </trkpt>
      <trkpt lat="45.11252" lon="4.40043">
        <ele>1135</ele>
        <time>2020-06-08T08:44:27Z</time>
      </trkpt>
      <trkpt lat="45.11244" lon="4.40089">
        <ele>1135</ele>
        <time>2020-06-08T08:44:35Z</time>
      </trkpt>
      <trkpt lat="45.11234" lon="4.40124">
        <ele>1132</ele>
        <time>2020-06-08T08:44:41Z</time>
      </trkpt>
      <trkpt lat="45.11207" lon="4.40197">
        <ele>1126</ele>
        <time>2020-06-08T08:44:55Z</time>
      </trkpt>
      <trkpt lat="45.11163" lon="4.40295">
        <ele>1120</ele>
        <time>2020-06-08T08:45:14Z</time>
      </trkpt>
      <trkpt lat="45.11141" lon="4.40406">
        <ele>1119</ele>
        <time>2020-06-08T08:45:33Z</time>
      </trkpt>
      <trkpt lat="45.11136" lon="4.40481">
        <ele>1116</ele>
        <time>2020-06-08T08:45:45Z</time>
      </trkpt>
      <trkpt lat="45.11115" lon="4.40561">
        <ele>1113</ele>
        <time>2020-06-08T08:46:00Z</time>
      </trkpt>
      <trkpt lat="45.11081" lon="4.40567">
        <ele>1113</ele>
        <time>2020-06-08T08:46:08Z</time>
      </trkpt>
      <trkpt lat="45.11037" lon="4.40588">
        <ele>1117</ele>
        <time>2020-06-08T08:46:18Z</time>
      </trkpt>
      <trkpt lat="45.10983" lon="4.40603">
        <ele>1123</ele>
        <time>2020-06-08T08:46:31Z</time>
      </trkpt>
      <trkpt lat="45.10968" lon="4.40613">
        <ele>1124</ele>
        <time>2020-06-08T08:46:35Z</time>
      </trkpt>
      <trkpt lat="45.10824" lon="4.40673">
        <ele>1131</ele>
        <time>2020-06-08T08:47:10Z</time>
      </trkpt>
      <trkpt lat="45.10682" lon="4.40714">
        <ele>1139</ele>
        <time>2020-06-08T08:47:44Z</time>
      </trkpt>
      <trkpt lat="45.10584" lon="4.40699">
        <ele>1145</ele>
        <time>2020-06-08T08:48:07Z</time>
      </trkpt>
      <trkpt lat="45.10527" lon="4.40679">
        <ele>1148</ele>
        <time>2020-06-08T08:48:21Z</time>
      </trkpt>
      <trkpt lat="45.10329" lon="4.40565">
        <ele>1156</ele>
        <time>2020-06-08T08:49:11Z</time>
      </trkpt>
      <trkpt lat="45.10276" lon="4.40537">
        <ele>1157</ele>
        <time>2020-06-08T08:49:24Z</time>
      </trkpt>
      <trkpt lat="45.10243" lon="4.40516">
        <ele>1159</ele>
        <time>2020-06-08T08:49:32Z</time>
      </trkpt>
      <trkpt lat="45.10187" lon="4.40471">
        <ele>1162</ele>
        <time>2020-06-08T08:49:47Z</time>
      </trkpt>
      <trkpt lat="45.10143" lon="4.40441">
        <ele>1163</ele>
        <time>2020-06-08T08:49:59Z</time>
      </trkpt>
      <trkpt lat="45.10024" lon="4.40386">
        <ele>1161</ele>
        <time>2020-06-08T08:50:28Z</time>
      </trkpt>
      <trkpt lat="45.09786" lon="4.4026">
        <ele>1166</ele>
        <time>2020-06-08T08:51:27Z</time>
      </trkpt>
      <trkpt lat="45.0976" lon="4.40252">
        <ele>1164</ele>
        <time>2020-06-08T08:51:33Z</time>
      </trkpt>
      <trkpt lat="45.09673" lon="4.40182">
        <ele>1162</ele>
        <time>2020-06-08T08:51:57Z</time>
      </trkpt>
      <trkpt lat="45.09646" lon="4.40145">
        <ele>1162</ele>
        <time>2020-06-08T08:52:06Z</time>
      </trkpt>
      <trkpt lat="45.09619" lon="4.401">
        <ele>1163</ele>
        <time>2020-06-08T08:52:15Z</time>
      </trkpt>
      <trkpt lat="45.09536" lon="4.3995">
        <ele>1167</ele>
        <time>2020-06-08T08:52:47Z</time>
      </trkpt>
      <trkpt lat="45.09343" lon="4.39592">
        <ele>1178</ele>
        <time>2020-06-08T08:54:01Z</time>
      </trkpt>
      <trkpt lat="45.09302" lon="4.39522">
        <ele>1182</ele>
        <time>2020-06-08T08:54:16Z</time>
      </trkpt>
      <trkpt lat="45.09254" lon="4.39425">
        <ele>1185</ele>
        <time>2020-06-08T08:54:36Z</time>
      </trkpt>
      <trkpt lat="45.09057" lon="4.39056">
        <ele>1197</ele>
        <time>2020-06-08T08:55:52Z</time>
      </trkpt>
      <trkpt lat="45.09033" lon="4.39003">
        <ele>1201</ele>
        <time>2020-06-08T08:56:02Z</time>
      </trkpt>
      <trkpt lat="45.08959" lon="4.38721">
        <ele>1204</ele>
        <time>2020-06-08T08:56:52Z</time>
      </trkpt>
      <trkpt lat="45.08918" lon="4.38584">
        <ele>1200</ele>
        <time>2020-06-08T08:57:16Z</time>
      </trkpt>
      <trkpt lat="45.08904" lon="4.38557">
        <ele>1201</ele>
        <time>2020-06-08T08:57:22Z</time>
      </trkpt>
      <trkpt lat="45.08864" lon="4.38508">
        <ele>1202</ele>
        <time>2020-06-08T08:57:34Z</time>
      </trkpt>
      <trkpt lat="45.0877" lon="4.38443">
        <ele>1198</ele>
        <time>2020-06-08T08:57:59Z</time>
      </trkpt>
      <trkpt lat="45.08717" lon="4.38419">
        <ele>1196</ele>
        <time>2020-06-08T08:58:12Z</time>
      </trkpt>
      <trkpt lat="45.0856" lon="4.38363">
        <ele>1192</ele>
        <time>2020-06-08T08:58:49Z</time>
      </trkpt>
      <trkpt lat="45.08491" lon="4.38359">
        <ele>1191</ele>
        <time>2020-06-08T08:59:06Z</time>
      </trkpt>
      <trkpt lat="45.08312" lon="4.38443">
        <ele>1199</ele>
        <time>2020-06-08T08:59:50Z</time>
      </trkpt>
      <trkpt lat="45.08227" lon="4.38466">
        <ele>1201</ele>
        <time>2020-06-08T09:00:10Z</time>
      </trkpt>
      <trkpt lat="45.08167" lon="4.38468">
        <ele>1201</ele>
        <time>2020-06-08T09:00:24Z</time>
      </trkpt>
      <trkpt lat="45.08076" lon="4.38482">
        <ele>1201</ele>
        <time>2020-06-08T09:00:45Z</time>
      </trkpt>
      <trkpt lat="45.08056" lon="4.38506">
        <ele>1201</ele>
        <time>2020-06-08T09:00:51Z</time>
      </trkpt>
      <trkpt lat="45.08043" lon="4.38509">
        <ele>1201</ele>
        <time>2020-06-08T09:00:54Z</time>
      </trkpt>
      <trkpt lat="45.07978" lon="4.38551">
        <ele>1201</ele>
        <time>2020-06-08T09:01:11Z</time>
      </trkpt>
      <trkpt lat="45.07887" lon="4.38631">
        <ele>1197</ele>
        <time>2020-06-08T09:01:36Z</time>
      </trkpt>
      <trkpt lat="45.07819" lon="4.38681">
        <ele>1194</ele>
        <time>2020-06-08T09:01:54Z</time>
      </trkpt>
      <trkpt lat="45.07773" lon="4.38702">
        <ele>1194</ele>
        <time>2020-06-08T09:02:05Z</time>
      </trkpt>
      <trkpt lat="45.07699" lon="4.38741">
        <ele>1195</ele>
        <time>2020-06-08T09:02:24Z</time>
      </trkpt>
      <trkpt lat="45.07084" lon="4.39023">
        <ele>1176</ele>
        <time>2020-06-08T09:04:55Z</time>
      </trkpt>
      <trkpt lat="45.07055" lon="4.39029">
        <ele>1175</ele>
        <time>2020-06-08T09:05:02Z</time>
      </trkpt>
      <trkpt lat="45.07012" lon="4.38989">
        <ele>1173</ele>
        <time>2020-06-08T09:05:14Z</time>
      </trkpt>
      <trkpt lat="45.06975" lon="4.38961">
        <ele>1171</ele>
        <time>2020-06-08T09:05:23Z</time>
      </trkpt>
      <trkpt lat="45.0691" lon="4.38922">
        <ele>1164</ele>
        <time>2020-06-08T09:05:40Z</time>
      </trkpt>
      <trkpt lat="45.06842" lon="4.38912">
        <ele>1160</ele>
        <time>2020-06-08T09:05:56Z</time>
      </trkpt>
      <trkpt lat="45.06851" lon="4.38877">
        <ele>1157</ele>
        <time>2020-06-08T09:06:02Z</time>
      </trkpt>
      <trkpt lat="45.0685" lon="4.3882">
        <ele>1152</ele>
        <time>2020-06-08T09:06:11Z</time>
      </trkpt>
      <trkpt lat="45.06816" lon="4.38783">
        <ele>1147</ele>
        <time>2020-06-08T09:06:21Z</time>
      </trkpt>
      <trkpt lat="45.06808" lon="4.38784">
        <ele>1147</ele>
        <time>2020-06-08T09:06:23Z</time>
      </trkpt>
      <trkpt lat="45.06785" lon="4.38672">
        <ele>1138</ele>
        <time>2020-06-08T09:06:42Z</time>
      </trkpt>
      <trkpt lat="45.06803" lon="4.38622">
        <ele>1138</ele>
        <time>2020-06-08T09:06:52Z</time>
      </trkpt>
      <trkpt lat="45.06811" lon="4.38587">
        <ele>1139</ele>
        <time>2020-06-08T09:06:58Z</time>
      </trkpt>
      <trkpt lat="45.06807" lon="4.38563">
        <ele>1139</ele>
        <time>2020-06-08T09:07:02Z</time>
      </trkpt>
      <trkpt lat="45.06762" lon="4.38477">
        <ele>1134</ele>
        <time>2020-06-08T09:07:20Z</time>
      </trkpt>
      <trkpt lat="45.0674" lon="4.38415">
        <ele>1134</ele>
        <time>2020-06-08T09:07:31Z</time>
      </trkpt>
      <trkpt lat="45.06735" lon="4.38381">
        <ele>1134</ele>
        <time>2020-06-08T09:07:37Z</time>
      </trkpt>
      <trkpt lat="45.06711" lon="4.38281">
        <ele>1132</ele>
        <time>2020-06-08T09:07:54Z</time>
      </trkpt>
      <trkpt lat="45.06715" lon="4.38222">
        <ele>1131</ele>
        <time>2020-06-08T09:08:04Z</time>
      </trkpt>
      <trkpt lat="45.06707" lon="4.38187">
        <ele>1131</ele>
        <time>2020-06-08T09:08:10Z</time>
      </trkpt>
      <trkpt lat="45.06694" lon="4.38162">
        <ele>1130</ele>
        <time>2020-06-08T09:08:15Z</time>
      </trkpt>
      <trkpt lat="45.06626" lon="4.38091">
        <ele>1128</ele>
        <time>2020-06-08T09:08:35Z</time>
      </trkpt>
      <trkpt lat="45.06602" lon="4.38055">
        <ele>1129</ele>
        <time>2020-06-08T09:08:43Z</time>
      </trkpt>
      <trkpt lat="45.06572" lon="4.38017">
        <ele>1127</ele>
        <time>2020-06-08T09:08:52Z</time>
      </trkpt>
      <trkpt lat="45.06547" lon="4.37975">
        <ele>1124</ele>
        <time>2020-06-08T09:09:01Z</time>
      </trkpt>
      <trkpt lat="45.06532" lon="4.37933">
        <ele>1122</ele>
        <time>2020-06-08T09:09:09Z</time>
      </trkpt>
      <trkpt lat="45.06525" lon="4.37905">
        <ele>1122</ele>
        <time>2020-06-08T09:09:14Z</time>
      </trkpt>
      <trkpt lat="45.06518" lon="4.3789">
        <ele>1122</ele>
        <time>2020-06-08T09:09:17Z</time>
      </trkpt>
      <trkpt lat="45.06525" lon="4.37823">
        <ele>1127</ele>
        <time>2020-06-08T09:09:28Z</time>
      </trkpt>
      <trkpt lat="45.06527" lon="4.37761">
        <ele>1130</ele>
        <time>2020-06-08T09:09:38Z</time>
      </trkpt>
      <trkpt lat="45.06536" lon="4.37691">
        <ele>1130</ele>
        <time>2020-06-08T09:09:50Z</time>
      </trkpt>
      <trkpt lat="45.0656" lon="4.3756">
        <ele>1121</ele>
        <time>2020-06-08T09:10:13Z</time>
      </trkpt>
      <trkpt lat="45.06558" lon="4.37534">
        <ele>1117</ele>
        <time>2020-06-08T09:10:17Z</time>
      </trkpt>
      <trkpt lat="45.06566" lon="4.37522">
        <ele>1115</ele>
        <time>2020-06-08T09:10:20Z</time>
      </trkpt>
      <trkpt lat="45.06594" lon="4.37515">
        <ele>1113</ele>
        <time>2020-06-08T09:10:26Z</time>
      </trkpt>
      <trkpt lat="45.06654" lon="4.37515">
        <ele>1113</ele>
        <time>2020-06-08T09:10:40Z</time>
      </trkpt>
      <trkpt lat="45.06684" lon="4.37478">
        <ele>1112</ele>
        <time>2020-06-08T09:10:50Z</time>
      </trkpt>
      <trkpt lat="45.06632" lon="4.37402">
        <ele>1107</ele>
        <time>2020-06-08T09:11:07Z</time>
      </trkpt>
      <trkpt lat="45.06599" lon="4.37315">
        <ele>1105</ele>
        <time>2020-06-08T09:11:23Z</time>
      </trkpt>
      <trkpt lat="45.06587" lon="4.37227">
        <ele>1103</ele>
        <time>2020-06-08T09:11:38Z</time>
      </trkpt>
      <trkpt lat="45.06592" lon="4.37183">
        <ele>1101</ele>
        <time>2020-06-08T09:11:45Z</time>
      </trkpt>
      <trkpt lat="45.06548" lon="4.3702">
        <ele>1089</ele>
        <time>2020-06-08T09:12:14Z</time>
      </trkpt>
      <trkpt lat="45.06519" lon="4.37061">
        <ele>1087</ele>
        <time>2020-06-08T09:12:24Z</time>
      </trkpt>
      <trkpt lat="45.06502" lon="4.3707">
        <ele>1086</ele>
        <time>2020-06-08T09:12:28Z</time>
      </trkpt>
      <trkpt lat="45.06469" lon="4.3708">
        <ele>1082</ele>
        <time>2020-06-08T09:12:36Z</time>
      </trkpt>
      <trkpt lat="45.06417" lon="4.37102">
        <ele>1075</ele>
        <time>2020-06-08T09:12:49Z</time>
      </trkpt>
      <trkpt lat="45.06394" lon="4.37092">
        <ele>1073</ele>
        <time>2020-06-08T09:12:54Z</time>
      </trkpt>
      <trkpt lat="45.06388" lon="4.37072">
        <ele>1072</ele>
        <time>2020-06-08T09:12:58Z</time>
      </trkpt>
      <trkpt lat="45.06388" lon="4.37019">
        <ele>1070</ele>
        <time>2020-06-08T09:13:06Z</time>
      </trkpt>
      <trkpt lat="45.06385" lon="4.37003">
        <ele>1069</ele>
        <time>2020-06-08T09:13:09Z</time>
      </trkpt>
      <trkpt lat="45.06376" lon="4.36999">
        <ele>1068</ele>
        <time>2020-06-08T09:13:11Z</time>
      </trkpt>
      <trkpt lat="45.06362" lon="4.37011">
        <ele>1068</ele>
        <time>2020-06-08T09:13:15Z</time>
      </trkpt>
      <trkpt lat="45.06358" lon="4.37029">
        <ele>1068</ele>
        <time>2020-06-08T09:13:18Z</time>
      </trkpt>
      <trkpt lat="45.06352" lon="4.37039">
        <ele>1068</ele>
        <time>2020-06-08T09:13:21Z</time>
      </trkpt>
      <trkpt lat="45.06344" lon="4.37043">
        <ele>1067</ele>
        <time>2020-06-08T09:13:23Z</time>
      </trkpt>
      <trkpt lat="45.06335" lon="4.37026">
        <ele>1066</ele>
        <time>2020-06-08T09:13:26Z</time>
      </trkpt>
      <trkpt lat="45.0632" lon="4.36976">
        <ele>1067</ele>
        <time>2020-06-08T09:13:35Z</time>
      </trkpt>
      <trkpt lat="45.06303" lon="4.36966">
        <ele>1069</ele>
        <time>2020-06-08T09:13:39Z</time>
      </trkpt>
      <trkpt lat="45.0628" lon="4.36962">
        <ele>1071</ele>
        <time>2020-06-08T09:13:45Z</time>
      </trkpt>
      <trkpt lat="45.06236" lon="4.36965">
        <ele>1075</ele>
        <time>2020-06-08T09:13:55Z</time>
      </trkpt>
      <trkpt lat="45.06219" lon="4.36972">
        <ele>1077</ele>
        <time>2020-06-08T09:13:59Z</time>
      </trkpt>
      <trkpt lat="45.06105" lon="4.37076">
        <ele>1084</ele>
        <time>2020-06-08T09:14:31Z</time>
      </trkpt>
      <trkpt lat="45.0609" lon="4.37083">
        <ele>1086</ele>
        <time>2020-06-08T09:14:34Z</time>
      </trkpt>
      <trkpt lat="45.0601" lon="4.37081">
        <ele>1090</ele>
        <time>2020-06-08T09:14:53Z</time>
      </trkpt>
      <trkpt lat="45.05958" lon="4.3712">
        <ele>1090</ele>
        <time>2020-06-08T09:15:07Z</time>
      </trkpt>
      <trkpt lat="45.05845" lon="4.37269">
        <ele>1092</ele>
        <time>2020-06-08T09:15:43Z</time>
      </trkpt>
      <trkpt lat="45.05828" lon="4.37309">
        <ele>1091</ele>
        <time>2020-06-08T09:15:51Z</time>
      </trkpt>
      <trkpt lat="45.05811" lon="4.37363">
        <ele>1092</ele>
        <time>2020-06-08T09:16:00Z</time>
      </trkpt>
      <trkpt lat="45.058" lon="4.37381">
        <ele>1093</ele>
        <time>2020-06-08T09:16:04Z</time>
      </trkpt>
      <trkpt lat="45.05762" lon="4.37412">
        <ele>1095</ele>
        <time>2020-06-08T09:16:15Z</time>
      </trkpt>
      <trkpt lat="45.05709" lon="4.37442">
        <ele>1097</ele>
        <time>2020-06-08T09:16:28Z</time>
      </trkpt>
      <trkpt lat="45.0569" lon="4.37461">
        <ele>1098</ele>
        <time>2020-06-08T09:16:33Z</time>
      </trkpt>
      <trkpt lat="45.05662" lon="4.37513">
        <ele>1100</ele>
        <time>2020-06-08T09:16:44Z</time>
      </trkpt>
      <trkpt lat="45.05498" lon="4.37755">
        <ele>1099</ele>
        <time>2020-06-08T09:17:39Z</time>
      </trkpt>
      <trkpt lat="45.0547" lon="4.37775">
        <ele>1097</ele>
        <time>2020-06-08T09:17:47Z</time>
      </trkpt>
      <trkpt lat="45.05284" lon="4.3789">
        <ele>1098</ele>
        <time>2020-06-08T09:18:34Z</time>
      </trkpt>
      <trkpt lat="45.05262" lon="4.3793">
        <ele>1098</ele>
        <time>2020-06-08T09:18:43Z</time>
      </trkpt>
      <trkpt lat="45.05234" lon="4.37973">
        <ele>1100</ele>
        <time>2020-06-08T09:18:52Z</time>
      </trkpt>
      <trkpt lat="45.05231" lon="4.37996">
        <ele>1100</ele>
        <time>2020-06-08T09:18:56Z</time>
      </trkpt>
      <trkpt lat="45.05217" lon="4.38037">
        <ele>1101</ele>
        <time>2020-06-08T09:19:04Z</time>
      </trkpt>
      <trkpt lat="45.05192" lon="4.38076">
        <ele>1103</ele>
        <time>2020-06-08T09:19:12Z</time>
      </trkpt>
      <trkpt lat="45.0516" lon="4.38109">
        <ele>1105</ele>
        <time>2020-06-08T09:19:21Z</time>
      </trkpt>
      <trkpt lat="45.05115" lon="4.38146">
        <ele>1104</ele>
        <time>2020-06-08T09:19:34Z</time>
      </trkpt>
      <trkpt lat="45.05066" lon="4.38174">
        <ele>1103</ele>
        <time>2020-06-08T09:19:46Z</time>
      </trkpt>
      <trkpt lat="45.05036" lon="4.382">
        <ele>1098</ele>
        <time>2020-06-08T09:19:54Z</time>
      </trkpt>
      <trkpt lat="45.0502" lon="4.38201">
        <ele>1098</ele>
        <time>2020-06-08T09:19:58Z</time>
      </trkpt>
      <trkpt lat="45.04995" lon="4.38218">
        <ele>1097</ele>
        <time>2020-06-08T09:20:04Z</time>
      </trkpt>
      <trkpt lat="45.04966" lon="4.38265">
        <ele>1095</ele>
        <time>2020-06-08T09:20:15Z</time>
      </trkpt>
      <trkpt lat="45.04948" lon="4.38326">
        <ele>1091</ele>
        <time>2020-06-08T09:20:26Z</time>
      </trkpt>
      <trkpt lat="45.04934" lon="4.38345">
        <ele>1091</ele>
        <time>2020-06-08T09:20:30Z</time>
      </trkpt>
      <trkpt lat="45.04824" lon="4.38403">
        <ele>1096</ele>
        <time>2020-06-08T09:20:58Z</time>
      </trkpt>
      <trkpt lat="45.04657" lon="4.3847">
        <ele>1095</ele>
        <time>2020-06-08T09:21:38Z</time>
      </trkpt>
      <trkpt lat="45.04657" lon="4.38551">
        <ele>1090</ele>
        <time>2020-06-08T09:21:51Z</time>
      </trkpt>
      <trkpt lat="45.04661" lon="4.38591">
        <ele>1089</ele>
        <time>2020-06-08T09:21:58Z</time>
      </trkpt>
      <trkpt lat="45.04672" lon="4.38627">
        <ele>1091</ele>
        <time>2020-06-08T09:22:05Z</time>
      </trkpt>
      <trkpt lat="45.0472" lon="4.3874">
        <ele>1094</ele>
        <time>2020-06-08T09:22:26Z</time>
      </trkpt>
      <trkpt lat="45.04767" lon="4.38998">
        <ele>1083</ele>
        <time>2020-06-08T09:23:10Z</time>
      </trkpt>
      <trkpt lat="45.04768" lon="4.39024">
        <ele>1082</ele>
        <time>2020-06-08T09:23:15Z</time>
      </trkpt>
      <trkpt lat="45.04762" lon="4.39051">
        <ele>1080</ele>
        <time>2020-06-08T09:23:19Z</time>
      </trkpt>
      <trkpt lat="45.0475" lon="4.39069">
        <ele>1080</ele>
        <time>2020-06-08T09:23:23Z</time>
      </trkpt>
      <trkpt lat="45.04734" lon="4.3908">
        <ele>1080</ele>
        <time>2020-06-08T09:23:28Z</time>
      </trkpt>
      <trkpt lat="45.04705" lon="4.39087">
        <ele>1081</ele>
        <time>2020-06-08T09:23:34Z</time>
      </trkpt>
      <trkpt lat="45.04689" lon="4.39095">
        <ele>1081</ele>
        <time>2020-06-08T09:23:38Z</time>
      </trkpt>
      <trkpt lat="45.04686" lon="4.39136">
        <ele>1077</ele>
        <time>2020-06-08T09:23:45Z</time>
      </trkpt>
      <trkpt lat="45.0468" lon="4.39393">
        <ele>1078</ele>
        <time>2020-06-08T09:24:28Z</time>
      </trkpt>
      <trkpt lat="45.04704" lon="4.39398">
        <ele>1079</ele>
        <time>2020-06-08T09:24:33Z</time>
      </trkpt>
      <trkpt lat="45.04752" lon="4.39426">
        <ele>1083</ele>
        <time>2020-06-08T09:24:45Z</time>
      </trkpt>
      <trkpt lat="45.04778" lon="4.39433">
        <ele>1085</ele>
        <time>2020-06-08T09:24:52Z</time>
      </trkpt>
      <trkpt lat="45.04869" lon="4.39429">
        <ele>1084</ele>
        <time>2020-06-08T09:25:13Z</time>
      </trkpt>
      <trkpt lat="45.04895" lon="4.39425">
        <ele>1083</ele>
        <time>2020-06-08T09:25:19Z</time>
      </trkpt>
      <trkpt lat="45.04929" lon="4.39427">
        <ele>1082</ele>
        <time>2020-06-08T09:25:27Z</time>
      </trkpt>
      <trkpt lat="45.04943" lon="4.39447">
        <ele>1081</ele>
        <time>2020-06-08T09:25:32Z</time>
      </trkpt>
      <trkpt lat="45.04946" lon="4.3947">
        <ele>1082</ele>
        <time>2020-06-08T09:25:35Z</time>
      </trkpt>
      <trkpt lat="45.0495" lon="4.39514">
        <ele>1083</ele>
        <time>2020-06-08T09:25:43Z</time>
      </trkpt>
      <trkpt lat="45.04947" lon="4.39587">
        <ele>1083</ele>
        <time>2020-06-08T09:25:55Z</time>
      </trkpt>
      <trkpt lat="45.04918" lon="4.39558">
        <ele>1087</ele>
        <time>2020-06-08T09:26:03Z</time>
      </trkpt>
      <trkpt lat="45.04889" lon="4.39534">
        <ele>1090</ele>
        <time>2020-06-08T09:26:11Z</time>
      </trkpt>
      <trkpt lat="45.04872" lon="4.39546">
        <ele>1092</ele>
        <time>2020-06-08T09:26:15Z</time>
      </trkpt>
      <trkpt lat="45.04856" lon="4.39576">
        <ele>1095</ele>
        <time>2020-06-08T09:26:22Z</time>
      </trkpt>
      <trkpt lat="45.04845" lon="4.39625">
        <ele>1097</ele>
        <time>2020-06-08T09:26:30Z</time>
      </trkpt>
      <trkpt lat="45.04819" lon="4.39672">
        <ele>1100</ele>
        <time>2020-06-08T09:26:40Z</time>
      </trkpt>
      <trkpt lat="45.04798" lon="4.39753">
        <ele>1103</ele>
        <time>2020-06-08T09:26:54Z</time>
      </trkpt>
      <trkpt lat="45.04778" lon="4.398">
        <ele>1104</ele>
        <time>2020-06-08T09:27:03Z</time>
      </trkpt>
      <trkpt lat="45.04749" lon="4.39852">
        <ele>1106</ele>
        <time>2020-06-08T09:27:14Z</time>
      </trkpt>
      <trkpt lat="45.04672" lon="4.39974">
        <ele>1102</ele>
        <time>2020-06-08T09:27:41Z</time>
      </trkpt>
      <trkpt lat="45.04587" lon="4.40088">
        <ele>1098</ele>
        <time>2020-06-08T09:28:08Z</time>
      </trkpt>
      <trkpt lat="45.04529" lon="4.40193">
        <ele>1099</ele>
        <time>2020-06-08T09:28:30Z</time>
      </trkpt>
      <trkpt lat="45.04496" lon="4.40272">
        <ele>1103</ele>
        <time>2020-06-08T09:28:46Z</time>
      </trkpt>
      <trkpt lat="45.04474" lon="4.40309">
        <ele>1103</ele>
        <time>2020-06-08T09:28:54Z</time>
      </trkpt>
      <trkpt lat="45.04453" lon="4.40353">
        <ele>1104</ele>
        <time>2020-06-08T09:29:02Z</time>
      </trkpt>
      <trkpt lat="45.04427" lon="4.40398">
        <ele>1106</ele>
        <time>2020-06-08T09:29:12Z</time>
      </trkpt>
      <trkpt lat="45.04404" lon="4.40452">
        <ele>1107</ele>
        <time>2020-06-08T09:29:22Z</time>
      </trkpt>
      <trkpt lat="45.04388" lon="4.40519">
        <ele>1107</ele>
        <time>2020-06-08T09:29:34Z</time>
      </trkpt>
      <trkpt lat="45.04384" lon="4.40592">
        <ele>1103</ele>
        <time>2020-06-08T09:29:46Z</time>
      </trkpt>
      <trkpt lat="45.04373" lon="4.40595">
        <ele>1102</ele>
        <time>2020-06-08T09:29:49Z</time>
      </trkpt>
      <trkpt lat="45.04355" lon="4.40578">
        <ele>1102</ele>
        <time>2020-06-08T09:29:54Z</time>
      </trkpt>
      <trkpt lat="45.04328" lon="4.4058">
        <ele>1101</ele>
        <time>2020-06-08T09:30:00Z</time>
      </trkpt>
      <trkpt lat="45.04128" lon="4.40663">
        <ele>1103</ele>
        <time>2020-06-08T09:30:49Z</time>
      </trkpt>
      <trkpt lat="45.04059" lon="4.40675">
        <ele>1110</ele>
        <time>2020-06-08T09:31:05Z</time>
      </trkpt>
      <trkpt lat="45.03992" lon="4.40677">
        <ele>1112</ele>
        <time>2020-06-08T09:31:21Z</time>
      </trkpt>
      <trkpt lat="45.03947" lon="4.40675">
        <ele>1113</ele>
        <time>2020-06-08T09:31:31Z</time>
      </trkpt>
      <trkpt lat="45.03842" lon="4.40682">
        <ele>1113</ele>
        <time>2020-06-08T09:31:56Z</time>
      </trkpt>
      <trkpt lat="45.03794" lon="4.4068">
        <ele>1111</ele>
        <time>2020-06-08T09:32:07Z</time>
      </trkpt>
      <trkpt lat="45.03744" lon="4.40673">
        <ele>1108</ele>
        <time>2020-06-08T09:32:19Z</time>
      </trkpt>
      <trkpt lat="45.03569" lon="4.40632">
        <ele>1103</ele>
        <time>2020-06-08T09:33:00Z</time>
      </trkpt>
      <trkpt lat="45.033" lon="4.40654">
        <ele>1088</ele>
        <time>2020-06-08T09:34:03Z</time>
      </trkpt>
      <trkpt lat="45.03098" lon="4.40679">
        <ele>1075</ele>
        <time>2020-06-08T09:34:50Z</time>
      </trkpt>
      <trkpt lat="45.03073" lon="4.40668">
        <ele>1074</ele>
        <time>2020-06-08T09:34:56Z</time>
      </trkpt>
      <trkpt lat="45.03024" lon="4.40662">
        <ele>1072</ele>
        <time>2020-06-08T09:35:08Z</time>
      </trkpt>
      <trkpt lat="45.02961" lon="4.40629">
        <ele>1069</ele>
        <time>2020-06-08T09:35:24Z</time>
      </trkpt>
      <trkpt lat="45.02848" lon="4.4055">
        <ele>1063</ele>
        <time>2020-06-08T09:35:53Z</time>
      </trkpt>
      <trkpt lat="45.02784" lon="4.40498">
        <ele>1060</ele>
        <time>2020-06-08T09:36:10Z</time>
      </trkpt>
      <trkpt lat="45.02757" lon="4.40435">
        <ele>1062</ele>
        <time>2020-06-08T09:36:22Z</time>
      </trkpt>
      <trkpt lat="45.02778" lon="4.40403">
        <ele>1062</ele>
        <time>2020-06-08T09:36:30Z</time>
      </trkpt>
      <trkpt lat="45.02781" lon="4.40324">
        <ele>1066</ele>
        <time>2020-06-08T09:36:43Z</time>
      </trkpt>
      <trkpt lat="45.02731" lon="4.40115">
        <ele>1062</ele>
        <time>2020-06-08T09:37:19Z</time>
      </trkpt>
      <trkpt lat="45.02731" lon="4.4003">
        <ele>1057</ele>
        <time>2020-06-08T09:37:33Z</time>
      </trkpt>
      <trkpt lat="45.02683" lon="4.39835">
        <ele>1049</ele>
        <time>2020-06-08T09:38:07Z</time>
      </trkpt>
      <trkpt lat="45.02669" lon="4.39822">
        <ele>1049</ele>
        <time>2020-06-08T09:38:11Z</time>
      </trkpt>
      <trkpt lat="45.0265" lon="4.39815">
        <ele>1047</ele>
        <time>2020-06-08T09:38:16Z</time>
      </trkpt>
      <trkpt lat="45.02555" lon="4.39828">
        <ele>1041</ele>
        <time>2020-06-08T09:38:38Z</time>
      </trkpt>
      <trkpt lat="45.02534" lon="4.39843">
        <ele>1041</ele>
        <time>2020-06-08T09:38:43Z</time>
      </trkpt>
      <trkpt lat="45.02514" lon="4.39842">
        <ele>1041</ele>
        <time>2020-06-08T09:38:48Z</time>
      </trkpt>
      <trkpt lat="45.02497" lon="4.39819">
        <ele>1039</ele>
        <time>2020-06-08T09:38:54Z</time>
      </trkpt>
      <trkpt lat="45.02481" lon="4.39775">
        <ele>1036</ele>
        <time>2020-06-08T09:39:02Z</time>
      </trkpt>
      <trkpt lat="45.02474" lon="4.3972">
        <ele>1031</ele>
        <time>2020-06-08T09:39:11Z</time>
      </trkpt>
      <trkpt lat="45.02433" lon="4.39657">
        <ele>1025</ele>
        <time>2020-06-08T09:39:25Z</time>
      </trkpt>
      <trkpt lat="45.02426" lon="4.39629">
        <ele>1023</ele>
        <time>2020-06-08T09:39:30Z</time>
      </trkpt>
      <trkpt lat="45.02413" lon="4.39518">
        <ele>1023</ele>
        <time>2020-06-08T09:39:49Z</time>
      </trkpt>
      <trkpt lat="45.02418" lon="4.3941">
        <ele>1027</ele>
        <time>2020-06-08T09:40:07Z</time>
      </trkpt>
      <trkpt lat="45.02435" lon="4.39288">
        <ele>1035</ele>
        <time>2020-06-08T09:40:27Z</time>
      </trkpt>
      <trkpt lat="45.02351" lon="4.3929">
        <ele>1031</ele>
        <time>2020-06-08T09:40:47Z</time>
      </trkpt>
      <trkpt lat="45.02322" lon="4.393">
        <ele>1030</ele>
        <time>2020-06-08T09:40:54Z</time>
      </trkpt>
      <trkpt lat="45.02313" lon="4.39328">
        <ele>1031</ele>
        <time>2020-06-08T09:40:59Z</time>
      </trkpt>
      <trkpt lat="45.02288" lon="4.39364">
        <ele>1029</ele>
        <time>2020-06-08T09:41:07Z</time>
      </trkpt>
      <trkpt lat="45.02244" lon="4.39397">
        <ele>1027</ele>
        <time>2020-06-08T09:41:19Z</time>
      </trkpt>
      <trkpt lat="45.02242" lon="4.39447">
        <ele>1024</ele>
        <time>2020-06-08T09:41:27Z</time>
      </trkpt>
      <trkpt lat="45.02222" lon="4.3946">
        <ele>1024</ele>
        <time>2020-06-08T09:41:32Z</time>
      </trkpt>
      <trkpt lat="45.02198" lon="4.39454">
        <ele>1024</ele>
        <time>2020-06-08T09:41:38Z</time>
      </trkpt>
      <trkpt lat="45.02156" lon="4.39461">
        <ele>1024</ele>
        <time>2020-06-08T09:41:48Z</time>
      </trkpt>
      <trkpt lat="45.02111" lon="4.39513">
        <ele>1021</ele>
        <time>2020-06-08T09:42:01Z</time>
      </trkpt>
      <trkpt lat="45.02078" lon="4.39523">
        <ele>1023</ele>
        <time>2020-06-08T09:42:09Z</time>
      </trkpt>
      <trkpt lat="45.02058" lon="4.3952">
        <ele>1026</ele>
        <time>2020-06-08T09:42:14Z</time>
      </trkpt>
      <trkpt lat="45.02038" lon="4.3951">
        <ele>1028</ele>
        <time>2020-06-08T09:42:19Z</time>
      </trkpt>
      <trkpt lat="45.02014" lon="4.39489">
        <ele>1031</ele>
        <time>2020-06-08T09:42:25Z</time>
      </trkpt>
      <trkpt lat="45.01901" lon="4.3949">
        <ele>1053</ele>
        <time>2020-06-08T09:42:52Z</time>
      </trkpt>
      <trkpt lat="45.01852" lon="4.39512">
        <ele>1060</ele>
        <time>2020-06-08T09:43:04Z</time>
      </trkpt>
      <trkpt lat="45.01828" lon="4.39541">
        <ele>1064</ele>
        <time>2020-06-08T09:43:11Z</time>
      </trkpt>
      <trkpt lat="45.0178" lon="4.39554">
        <ele>1068</ele>
        <time>2020-06-08T09:43:23Z</time>
      </trkpt>
      <trkpt lat="45.01747" lon="4.39573">
        <ele>1073</ele>
        <time>2020-06-08T09:43:31Z</time>
      </trkpt>
      <trkpt lat="45.01705" lon="4.3959">
        <ele>1072</ele>
        <time>2020-06-08T09:43:41Z</time>
      </trkpt>
      <trkpt lat="45.0167" lon="4.39617">
        <ele>1074</ele>
        <time>2020-06-08T09:43:50Z</time>
      </trkpt>
      <trkpt lat="45.01638" lon="4.39655">
        <ele>1077</ele>
        <time>2020-06-08T09:44:00Z</time>
      </trkpt>
      <trkpt lat="45.01587" lon="4.39728">
        <ele>1076</ele>
        <time>2020-06-08T09:44:17Z</time>
      </trkpt>
      <trkpt lat="45.01559" lon="4.39744">
        <ele>1079</ele>
        <time>2020-06-08T09:44:24Z</time>
      </trkpt>
      <trkpt lat="45.0152" lon="4.39735">
        <ele>1083</ele>
        <time>2020-06-08T09:44:33Z</time>
      </trkpt>
      <trkpt lat="45.01511" lon="4.39737">
        <ele>1084</ele>
        <time>2020-06-08T09:44:35Z</time>
      </trkpt>
      <trkpt lat="45.01509" lon="4.39729">
        <ele>1085</ele>
        <time>2020-06-08T09:44:37Z</time>
      </trkpt>
      <trkpt lat="45.01486" lon="4.39713">
        <ele>1088</ele>
        <time>2020-06-08T09:44:43Z</time>
      </trkpt>
      <trkpt lat="45.01344" lon="4.39685">
        <ele>1106</ele>
        <time>2020-06-08T09:45:16Z</time>
      </trkpt>
      <trkpt lat="45.01324" lon="4.3968">
        <ele>1108</ele>
        <time>2020-06-08T09:45:21Z</time>
      </trkpt>
      <trkpt lat="45.01315" lon="4.39674">
        <ele>1109</ele>
        <time>2020-06-08T09:45:23Z</time>
      </trkpt>
      <trkpt lat="45.01329" lon="4.39667">
        <ele>1111</ele>
        <time>2020-06-08T09:45:27Z</time>
      </trkpt>
      <trkpt lat="45.01376" lon="4.39615">
        <ele>1114</ele>
        <time>2020-06-08T09:45:41Z</time>
      </trkpt>
      <trkpt lat="45.01391" lon="4.39585">
        <ele>1116</ele>
        <time>2020-06-08T09:45:47Z</time>
      </trkpt>
      <trkpt lat="45.01402" lon="4.39548">
        <ele>1116</ele>
        <time>2020-06-08T09:45:53Z</time>
      </trkpt>
      <trkpt lat="45.014" lon="4.39503">
        <ele>1117</ele>
        <time>2020-06-08T09:46:01Z</time>
      </trkpt>
      <trkpt lat="45.01394" lon="4.39482">
        <ele>1115</ele>
        <time>2020-06-08T09:46:05Z</time>
      </trkpt>
      <trkpt lat="45.01385" lon="4.39467">
        <ele>1113</ele>
        <time>2020-06-08T09:46:08Z</time>
      </trkpt>
      <trkpt lat="45.01367" lon="4.39452">
        <ele>1112</ele>
        <time>2020-06-08T09:46:13Z</time>
      </trkpt>
      <trkpt lat="45.01347" lon="4.39446">
        <ele>1113</ele>
        <time>2020-06-08T09:46:18Z</time>
      </trkpt>
      <trkpt lat="45.01306" lon="4.39449">
        <ele>1112</ele>
        <time>2020-06-08T09:46:27Z</time>
      </trkpt>
      <trkpt lat="45.01279" lon="4.39466">
        <ele>1111</ele>
        <time>2020-06-08T09:46:34Z</time>
      </trkpt>
      <trkpt lat="45.01264" lon="4.39507">
        <ele>1115</ele>
        <time>2020-06-08T09:46:42Z</time>
      </trkpt>
      <trkpt lat="45.01235" lon="4.39549">
        <ele>1111</ele>
        <time>2020-06-08T09:46:51Z</time>
      </trkpt>
      <trkpt lat="45.0123" lon="4.39567">
        <ele>1110</ele>
        <time>2020-06-08T09:46:55Z</time>
      </trkpt>
      <trkpt lat="45.01216" lon="4.39578">
        <ele>1107</ele>
        <time>2020-06-08T09:46:58Z</time>
      </trkpt>
      <trkpt lat="45.01205" lon="4.39605">
        <ele>1104</ele>
        <time>2020-06-08T09:47:03Z</time>
      </trkpt>
      <trkpt lat="45.01207" lon="4.39635">
        <ele>1104</ele>
        <time>2020-06-08T09:47:08Z</time>
      </trkpt>
      <trkpt lat="45.01192" lon="4.3966">
        <ele>1101</ele>
        <time>2020-06-08T09:47:14Z</time>
      </trkpt>
      <trkpt lat="45.01189" lon="4.39658">
        <ele>1101</ele>
        <time>2020-06-08T09:47:15Z</time>
      </trkpt>
      <trkpt lat="45.01176" lon="4.39676">
        <ele>1098</ele>
        <time>2020-06-08T09:47:19Z</time>
      </trkpt>
      <trkpt lat="45.01152" lon="4.39694">
        <ele>1093</ele>
        <time>2020-06-08T09:47:25Z</time>
      </trkpt>
      <trkpt lat="45.01084" lon="4.39704">
        <ele>1084</ele>
        <time>2020-06-08T09:47:41Z</time>
      </trkpt>
      <trkpt lat="45.01079" lon="4.3969">
        <ele>1082</ele>
        <time>2020-06-08T09:47:44Z</time>
      </trkpt>
      <trkpt lat="45.01069" lon="4.39676">
        <ele>1080</ele>
        <time>2020-06-08T09:47:47Z</time>
      </trkpt>
      <trkpt lat="45.01048" lon="4.39659">
        <ele>1076</ele>
        <time>2020-06-08T09:47:53Z</time>
      </trkpt>
      <trkpt lat="45.01035" lon="4.3959">
        <ele>1071</ele>
        <time>2020-06-08T09:48:04Z</time>
      </trkpt>
      <trkpt lat="45.01024" lon="4.39568">
        <ele>1069</ele>
        <time>2020-06-08T09:48:09Z</time>
      </trkpt>
      <trkpt lat="45.01014" lon="4.39528">
        <ele>1068</ele>
        <time>2020-06-08T09:48:16Z</time>
      </trkpt>
      <trkpt lat="45.01031" lon="4.39469">
        <ele>1068</ele>
        <time>2020-06-08T09:48:26Z</time>
      </trkpt>
    </trkseg>
  </trk>
</gpx>